<?xml version="1.0" encoding="UTF-8" standalone="no" ?>
<gpx xmlns="http://www.topografix.com/GPX/1/1" xmlns:xsi="http://www.w3.org/2001/XMLSchema-instance" xsi:schemaLocation="http://www.topografix.com/GPX/1/1 http://www.topografix.com/GPX/1/1/gpx.xsd" version="1.1" creator="VisuGPX - https://www.visugpx.com">
  <metadata>
    <name>MARSANNAY la CÔTE - Le Plateau</name>
    <desc><![CDATA[Belle randonnée empruntant des sous-bois bien agréables.]]></desc>
  </metadata>
  <trk>
    <name><![CDATA[2015-03-17-02]]></name>
    <trkseg>
      <trkpt lat="47.2836" lon="4.98623">
        <ele>321.6</ele>
        <time>2015-03-17T12:55:17Z</time>
      </trkpt>
      <trkpt lat="47.2836" lon="4.98623">
        <ele>321.6</ele>
        <time>2015-03-17T12:55:18Z</time>
      </trkpt>
      <trkpt lat="47.28354" lon="4.98632">
        <ele>320.6</ele>
        <time>2015-03-17T12:59:41Z</time>
      </trkpt>
      <trkpt lat="47.28353" lon="4.98646">
        <ele>320.5</ele>
        <time>2015-03-17T12:59:55Z</time>
      </trkpt>
      <trkpt lat="47.28354" lon="4.9866">
        <ele>320.5</ele>
        <time>2015-03-17T13:00:10Z</time>
      </trkpt>
      <trkpt lat="47.28359" lon="4.98671">
        <ele>321.3</ele>
        <time>2015-03-17T13:00:23Z</time>
      </trkpt>
      <trkpt lat="47.28361" lon="4.98686">
        <ele>321.6</ele>
        <time>2015-03-17T13:00:34Z</time>
      </trkpt>
      <trkpt lat="47.28364" lon="4.98699">
        <ele>322.1</ele>
        <time>2015-03-17T13:00:44Z</time>
      </trkpt>
      <trkpt lat="47.28367" lon="4.98712">
        <ele>322.4</ele>
        <time>2015-03-17T13:00:53Z</time>
      </trkpt>
      <trkpt lat="47.28367" lon="4.98727">
        <ele>322.4</ele>
        <time>2015-03-17T13:01:03Z</time>
      </trkpt>
      <trkpt lat="47.28367" lon="4.98741">
        <ele>322.4</ele>
        <time>2015-03-17T13:01:15Z</time>
      </trkpt>
      <trkpt lat="47.28362" lon="4.98753">
        <ele>321.5</ele>
        <time>2015-03-17T13:02:21Z</time>
      </trkpt>
      <trkpt lat="47.28358" lon="4.98766">
        <ele>320.9</ele>
        <time>2015-03-17T13:02:32Z</time>
      </trkpt>
      <trkpt lat="47.28352" lon="4.98778">
        <ele>320</ele>
        <time>2015-03-17T13:02:39Z</time>
      </trkpt>
      <trkpt lat="47.28349" lon="4.98791">
        <ele>319.5</ele>
        <time>2015-03-17T13:02:48Z</time>
      </trkpt>
      <trkpt lat="47.28349" lon="4.98805">
        <ele>319.6</ele>
        <time>2015-03-17T13:02:58Z</time>
      </trkpt>
      <trkpt lat="47.28351" lon="4.98819">
        <ele>319.9</ele>
        <time>2015-03-17T13:03:12Z</time>
      </trkpt>
      <trkpt lat="47.28351" lon="4.98833">
        <ele>319.9</ele>
        <time>2015-03-17T13:03:26Z</time>
      </trkpt>
      <trkpt lat="47.28353" lon="4.98846">
        <ele>320.1</ele>
        <time>2015-03-17T13:03:37Z</time>
      </trkpt>
      <trkpt lat="47.28356" lon="4.98859">
        <ele>320.3</ele>
        <time>2015-03-17T13:03:47Z</time>
      </trkpt>
      <trkpt lat="47.28358" lon="4.98873">
        <ele>320.5</ele>
        <time>2015-03-17T13:03:54Z</time>
      </trkpt>
      <trkpt lat="47.28361" lon="4.98886">
        <ele>320.7</ele>
        <time>2015-03-17T13:04:01Z</time>
      </trkpt>
      <trkpt lat="47.28363" lon="4.98899">
        <ele>321</ele>
        <time>2015-03-17T13:04:14Z</time>
      </trkpt>
      <trkpt lat="47.28364" lon="4.98914">
        <ele>321</ele>
        <time>2015-03-17T13:04:26Z</time>
      </trkpt>
      <trkpt lat="47.28372" lon="4.98924">
        <ele>321.8</ele>
        <time>2015-03-17T13:04:35Z</time>
      </trkpt>
      <trkpt lat="47.28379" lon="4.98932">
        <ele>322.7</ele>
        <time>2015-03-17T13:04:42Z</time>
      </trkpt>
      <trkpt lat="47.28386" lon="4.98943">
        <ele>323.7</ele>
        <time>2015-03-17T13:04:49Z</time>
      </trkpt>
      <trkpt lat="47.28393" lon="4.98952">
        <ele>324.8</ele>
        <time>2015-03-17T13:04:57Z</time>
      </trkpt>
      <trkpt lat="47.28398" lon="4.98963">
        <ele>325.8</ele>
        <time>2015-03-17T13:05:05Z</time>
      </trkpt>
      <trkpt lat="47.28401" lon="4.98977">
        <ele>326.7</ele>
        <time>2015-03-17T13:05:14Z</time>
      </trkpt>
      <trkpt lat="47.28403" lon="4.98991">
        <ele>327.5</ele>
        <time>2015-03-17T13:05:23Z</time>
      </trkpt>
      <trkpt lat="47.28405" lon="4.99005">
        <ele>328.3</ele>
        <time>2015-03-17T13:05:34Z</time>
      </trkpt>
      <trkpt lat="47.28408" lon="4.99018">
        <ele>329.4</ele>
        <time>2015-03-17T13:05:43Z</time>
      </trkpt>
      <trkpt lat="47.28409" lon="4.99033">
        <ele>330.1</ele>
        <time>2015-03-17T13:05:51Z</time>
      </trkpt>
      <trkpt lat="47.28411" lon="4.99046">
        <ele>331</ele>
        <time>2015-03-17T13:06:01Z</time>
      </trkpt>
      <trkpt lat="47.28413" lon="4.9906">
        <ele>332.1</ele>
        <time>2015-03-17T13:06:10Z</time>
      </trkpt>
      <trkpt lat="47.28416" lon="4.99075">
        <ele>333.4</ele>
        <time>2015-03-17T13:06:20Z</time>
      </trkpt>
      <trkpt lat="47.28416" lon="4.99089">
        <ele>333.7</ele>
        <time>2015-03-17T13:06:27Z</time>
      </trkpt>
      <trkpt lat="47.28418" lon="4.99103">
        <ele>333.4</ele>
        <time>2015-03-17T13:06:35Z</time>
      </trkpt>
      <trkpt lat="47.28423" lon="4.99114">
        <ele>333.2</ele>
        <time>2015-03-17T13:06:44Z</time>
      </trkpt>
      <trkpt lat="47.28427" lon="4.99127">
        <ele>332.8</ele>
        <time>2015-03-17T13:06:54Z</time>
      </trkpt>
      <trkpt lat="47.2843" lon="4.99141">
        <ele>332.4</ele>
        <time>2015-03-17T13:07:03Z</time>
      </trkpt>
      <trkpt lat="47.28431" lon="4.99155">
        <ele>331.9</ele>
        <time>2015-03-17T13:07:11Z</time>
      </trkpt>
      <trkpt lat="47.28433" lon="4.99168">
        <ele>331.5</ele>
        <time>2015-03-17T13:07:23Z</time>
      </trkpt>
      <trkpt lat="47.28437" lon="4.9918">
        <ele>330.9</ele>
        <time>2015-03-17T13:07:32Z</time>
      </trkpt>
      <trkpt lat="47.28441" lon="4.99194">
        <ele>330.2</ele>
        <time>2015-03-17T13:07:41Z</time>
      </trkpt>
      <trkpt lat="47.28441" lon="4.99207">
        <ele>329.3</ele>
        <time>2015-03-17T13:07:49Z</time>
      </trkpt>
      <trkpt lat="47.28444" lon="4.9922">
        <ele>328.8</ele>
        <time>2015-03-17T13:07:58Z</time>
      </trkpt>
      <trkpt lat="47.2845" lon="4.99231">
        <ele>328.7</ele>
        <time>2015-03-17T13:08:08Z</time>
      </trkpt>
      <trkpt lat="47.28452" lon="4.99245">
        <ele>328.2</ele>
        <time>2015-03-17T13:08:17Z</time>
      </trkpt>
      <trkpt lat="47.28457" lon="4.99256">
        <ele>327.8</ele>
        <time>2015-03-17T13:08:26Z</time>
      </trkpt>
      <trkpt lat="47.28462" lon="4.99268">
        <ele>327</ele>
        <time>2015-03-17T13:08:37Z</time>
      </trkpt>
      <trkpt lat="47.28467" lon="4.99279">
        <ele>326.5</ele>
        <time>2015-03-17T13:08:51Z</time>
      </trkpt>
      <trkpt lat="47.28474" lon="4.9929">
        <ele>326.1</ele>
        <time>2015-03-17T13:09:01Z</time>
      </trkpt>
      <trkpt lat="47.2848" lon="4.99301">
        <ele>325.8</ele>
        <time>2015-03-17T13:09:13Z</time>
      </trkpt>
      <trkpt lat="47.28486" lon="4.99312">
        <ele>325.4</ele>
        <time>2015-03-17T13:09:25Z</time>
      </trkpt>
      <trkpt lat="47.28493" lon="4.99323">
        <ele>325</ele>
        <time>2015-03-17T13:09:35Z</time>
      </trkpt>
      <trkpt lat="47.285" lon="4.99331">
        <ele>325.2</ele>
        <time>2015-03-17T13:09:43Z</time>
      </trkpt>
      <trkpt lat="47.28508" lon="4.99337">
        <ele>324.3</ele>
        <time>2015-03-17T13:09:54Z</time>
      </trkpt>
      <trkpt lat="47.28516" lon="4.99345">
        <ele>323</ele>
        <time>2015-03-17T13:10:08Z</time>
      </trkpt>
      <trkpt lat="47.2852" lon="4.99358">
        <ele>321.1</ele>
        <time>2015-03-17T13:10:17Z</time>
      </trkpt>
      <trkpt lat="47.28525" lon="4.99369">
        <ele>319.7</ele>
        <time>2015-03-17T13:10:33Z</time>
      </trkpt>
      <trkpt lat="47.2853" lon="4.99382">
        <ele>318</ele>
        <time>2015-03-17T13:10:44Z</time>
      </trkpt>
      <trkpt lat="47.28537" lon="4.99391">
        <ele>317.1</ele>
        <time>2015-03-17T13:10:54Z</time>
      </trkpt>
      <trkpt lat="47.28545" lon="4.994">
        <ele>316.3</ele>
        <time>2015-03-17T13:11:13Z</time>
      </trkpt>
      <trkpt lat="47.28552" lon="4.9941">
        <ele>315.6</ele>
        <time>2015-03-17T13:11:22Z</time>
      </trkpt>
      <trkpt lat="47.28557" lon="4.99422">
        <ele>314.5</ele>
        <time>2015-03-17T13:11:30Z</time>
      </trkpt>
      <trkpt lat="47.28564" lon="4.99432">
        <ele>313.3</ele>
        <time>2015-03-17T13:11:49Z</time>
      </trkpt>
      <trkpt lat="47.28572" lon="4.99438">
        <ele>313.1</ele>
        <time>2015-03-17T13:12:06Z</time>
      </trkpt>
      <trkpt lat="47.2858" lon="4.99445">
        <ele>312.8</ele>
        <time>2015-03-17T13:12:37Z</time>
      </trkpt>
      <trkpt lat="47.28586" lon="4.99456">
        <ele>311.4</ele>
        <time>2015-03-17T13:12:53Z</time>
      </trkpt>
      <trkpt lat="47.2859" lon="4.99468">
        <ele>309.9</ele>
        <time>2015-03-17T13:13:09Z</time>
      </trkpt>
      <trkpt lat="47.28599" lon="4.99476">
        <ele>309</ele>
        <time>2015-03-17T13:13:21Z</time>
      </trkpt>
      <trkpt lat="47.28606" lon="4.99484">
        <ele>308</ele>
        <time>2015-03-17T13:13:28Z</time>
      </trkpt>
      <trkpt lat="47.28616" lon="4.99487">
        <ele>307.9</ele>
        <time>2015-03-17T13:13:36Z</time>
      </trkpt>
      <trkpt lat="47.28623" lon="4.99496">
        <ele>307.1</ele>
        <time>2015-03-17T13:13:43Z</time>
      </trkpt>
      <trkpt lat="47.28631" lon="4.99502">
        <ele>306.6</ele>
        <time>2015-03-17T13:13:49Z</time>
      </trkpt>
      <trkpt lat="47.2864" lon="4.99506">
        <ele>306.5</ele>
        <time>2015-03-17T13:13:56Z</time>
      </trkpt>
      <trkpt lat="47.2865" lon="4.99508">
        <ele>306.7</ele>
        <time>2015-03-17T13:14:05Z</time>
      </trkpt>
      <trkpt lat="47.28659" lon="4.99507">
        <ele>307</ele>
        <time>2015-03-17T13:14:15Z</time>
      </trkpt>
      <trkpt lat="47.28668" lon="4.99509">
        <ele>307.3</ele>
        <time>2015-03-17T13:14:29Z</time>
      </trkpt>
      <trkpt lat="47.28677" lon="4.99514">
        <ele>307.2</ele>
        <time>2015-03-17T13:14:41Z</time>
      </trkpt>
      <trkpt lat="47.28686" lon="4.99517">
        <ele>307.7</ele>
        <time>2015-03-17T13:14:49Z</time>
      </trkpt>
      <trkpt lat="47.28696" lon="4.99518">
        <ele>308.2</ele>
        <time>2015-03-17T13:14:58Z</time>
      </trkpt>
      <trkpt lat="47.28705" lon="4.99519">
        <ele>308.7</ele>
        <time>2015-03-17T13:15:09Z</time>
      </trkpt>
      <trkpt lat="47.2871" lon="4.99531">
        <ele>307.7</ele>
        <time>2015-03-17T13:15:22Z</time>
      </trkpt>
      <trkpt lat="47.28714" lon="4.99544">
        <ele>306.4</ele>
        <time>2015-03-17T13:15:29Z</time>
      </trkpt>
      <trkpt lat="47.28711" lon="4.99557">
        <ele>304.7</ele>
        <time>2015-03-17T13:15:36Z</time>
      </trkpt>
      <trkpt lat="47.28721" lon="4.99554">
        <ele>305.7</ele>
        <time>2015-03-17T13:15:45Z</time>
      </trkpt>
      <trkpt lat="47.2873" lon="4.99558">
        <ele>305.8</ele>
        <time>2015-03-17T13:15:59Z</time>
      </trkpt>
      <trkpt lat="47.28738" lon="4.99561">
        <ele>306.1</ele>
        <time>2015-03-17T13:16:06Z</time>
      </trkpt>
      <trkpt lat="47.28749" lon="4.99563">
        <ele>306.5</ele>
        <time>2015-03-17T13:16:11Z</time>
      </trkpt>
      <trkpt lat="47.28759" lon="4.99568">
        <ele>306.3</ele>
        <time>2015-03-17T13:16:19Z</time>
      </trkpt>
      <trkpt lat="47.28769" lon="4.99571">
        <ele>306.4</ele>
        <time>2015-03-17T13:16:30Z</time>
      </trkpt>
      <trkpt lat="47.28779" lon="4.99573">
        <ele>306.6</ele>
        <time>2015-03-17T13:16:37Z</time>
      </trkpt>
      <trkpt lat="47.28789" lon="4.99578">
        <ele>306.6</ele>
        <time>2015-03-17T13:16:43Z</time>
      </trkpt>
      <trkpt lat="47.28798" lon="4.99582">
        <ele>306.4</ele>
        <time>2015-03-17T13:16:51Z</time>
      </trkpt>
      <trkpt lat="47.28806" lon="4.99588">
        <ele>306</ele>
        <time>2015-03-17T13:16:59Z</time>
      </trkpt>
      <trkpt lat="47.28814" lon="4.99595">
        <ele>305.1</ele>
        <time>2015-03-17T13:17:09Z</time>
      </trkpt>
      <trkpt lat="47.2882" lon="4.99606">
        <ele>303.5</ele>
        <time>2015-03-17T13:17:19Z</time>
      </trkpt>
      <trkpt lat="47.28829" lon="4.99605">
        <ele>304.1</ele>
        <time>2015-03-17T13:17:27Z</time>
      </trkpt>
      <trkpt lat="47.28839" lon="4.99601">
        <ele>304.7</ele>
        <time>2015-03-17T13:17:35Z</time>
      </trkpt>
      <trkpt lat="47.28848" lon="4.99604">
        <ele>304.4</ele>
        <time>2015-03-17T13:17:49Z</time>
      </trkpt>
      <trkpt lat="47.28852" lon="4.99591">
        <ele>306.4</ele>
        <time>2015-03-17T13:18:38Z</time>
      </trkpt>
      <trkpt lat="47.28849" lon="4.99578">
        <ele>308.4</ele>
        <time>2015-03-17T13:18:57Z</time>
      </trkpt>
      <trkpt lat="47.28843" lon="4.99566">
        <ele>309.9</ele>
        <time>2015-03-17T13:19:12Z</time>
      </trkpt>
      <trkpt lat="47.28841" lon="4.99552">
        <ele>311.4</ele>
        <time>2015-03-17T13:19:24Z</time>
      </trkpt>
      <trkpt lat="47.28839" lon="4.99538">
        <ele>312.9</ele>
        <time>2015-03-17T13:19:32Z</time>
      </trkpt>
      <trkpt lat="47.2884" lon="4.99524">
        <ele>314.5</ele>
        <time>2015-03-17T13:19:40Z</time>
      </trkpt>
      <trkpt lat="47.28847" lon="4.99517">
        <ele>315.4</ele>
        <time>2015-03-17T13:19:54Z</time>
      </trkpt>
      <trkpt lat="47.28853" lon="4.99506">
        <ele>316.6</ele>
        <time>2015-03-17T13:20:03Z</time>
      </trkpt>
      <trkpt lat="47.28859" lon="4.99496">
        <ele>317.7</ele>
        <time>2015-03-17T13:20:13Z</time>
      </trkpt>
      <trkpt lat="47.28869" lon="4.99498">
        <ele>317.7</ele>
        <time>2015-03-17T13:20:58Z</time>
      </trkpt>
      <trkpt lat="47.28878" lon="4.99501">
        <ele>317.5</ele>
        <time>2015-03-17T13:21:07Z</time>
      </trkpt>
      <trkpt lat="47.28887" lon="4.99504">
        <ele>317.2</ele>
        <time>2015-03-17T13:21:18Z</time>
      </trkpt>
      <trkpt lat="47.28896" lon="4.99505">
        <ele>317.3</ele>
        <time>2015-03-17T13:21:26Z</time>
      </trkpt>
      <trkpt lat="47.28906" lon="4.99508">
        <ele>316.9</ele>
        <time>2015-03-17T13:21:33Z</time>
      </trkpt>
      <trkpt lat="47.28915" lon="4.9951">
        <ele>316.8</ele>
        <time>2015-03-17T13:21:48Z</time>
      </trkpt>
      <trkpt lat="47.28925" lon="4.99508">
        <ele>317.4</ele>
        <time>2015-03-17T13:21:59Z</time>
      </trkpt>
      <trkpt lat="47.28934" lon="4.99504">
        <ele>318.3</ele>
        <time>2015-03-17T13:22:07Z</time>
      </trkpt>
      <trkpt lat="47.28943" lon="4.99501">
        <ele>319.1</ele>
        <time>2015-03-17T13:22:19Z</time>
      </trkpt>
      <trkpt lat="47.28952" lon="4.99504">
        <ele>319.4</ele>
        <time>2015-03-17T13:22:37Z</time>
      </trkpt>
      <trkpt lat="47.28962" lon="4.99502">
        <ele>320</ele>
        <time>2015-03-17T13:22:44Z</time>
      </trkpt>
      <trkpt lat="47.28971" lon="4.99503">
        <ele>320.3</ele>
        <time>2015-03-17T13:22:51Z</time>
      </trkpt>
      <trkpt lat="47.2898" lon="4.995">
        <ele>321</ele>
        <time>2015-03-17T13:23:06Z</time>
      </trkpt>
      <trkpt lat="47.28987" lon="4.9949">
        <ele>322.2</ele>
        <time>2015-03-17T13:23:19Z</time>
      </trkpt>
      <trkpt lat="47.28996" lon="4.99485">
        <ele>323</ele>
        <time>2015-03-17T13:23:45Z</time>
      </trkpt>
      <trkpt lat="47.29019" lon="4.99476">
        <ele>322.9</ele>
        <time>2015-03-17T13:25:00Z</time>
      </trkpt>
      <trkpt lat="47.29001" lon="4.99484">
        <ele>323.2</ele>
        <time>2015-03-17T13:25:01Z</time>
      </trkpt>
      <trkpt lat="47.28994" lon="4.99475">
        <ele>323.6</ele>
        <time>2015-03-17T13:29:13Z</time>
      </trkpt>
      <trkpt lat="47.28997" lon="4.99463">
        <ele>324.6</ele>
        <time>2015-03-17T13:29:24Z</time>
      </trkpt>
      <trkpt lat="47.29002" lon="4.9945">
        <ele>325.5</ele>
        <time>2015-03-17T13:29:35Z</time>
      </trkpt>
      <trkpt lat="47.29011" lon="4.99446">
        <ele>325.3</ele>
        <time>2015-03-17T13:29:46Z</time>
      </trkpt>
      <trkpt lat="47.29019" lon="4.99438">
        <ele>325.3</ele>
        <time>2015-03-17T13:29:55Z</time>
      </trkpt>
      <trkpt lat="47.29026" lon="4.99428">
        <ele>325.5</ele>
        <time>2015-03-17T13:30:06Z</time>
      </trkpt>
      <trkpt lat="47.29031" lon="4.99415">
        <ele>325.8</ele>
        <time>2015-03-17T13:30:16Z</time>
      </trkpt>
      <trkpt lat="47.29039" lon="4.99409">
        <ele>325.6</ele>
        <time>2015-03-17T13:30:26Z</time>
      </trkpt>
      <trkpt lat="47.29049" lon="4.99405">
        <ele>325.2</ele>
        <time>2015-03-17T13:30:33Z</time>
      </trkpt>
      <trkpt lat="47.29056" lon="4.99395">
        <ele>325.3</ele>
        <time>2015-03-17T13:30:41Z</time>
      </trkpt>
      <trkpt lat="47.29063" lon="4.99386">
        <ele>325.4</ele>
        <time>2015-03-17T13:30:50Z</time>
      </trkpt>
      <trkpt lat="47.2907" lon="4.99376">
        <ele>325.7</ele>
        <time>2015-03-17T13:30:58Z</time>
      </trkpt>
      <trkpt lat="47.29079" lon="4.99375">
        <ele>325.2</ele>
        <time>2015-03-17T13:31:13Z</time>
      </trkpt>
      <trkpt lat="47.29088" lon="4.99381">
        <ele>324.5</ele>
        <time>2015-03-17T13:32:38Z</time>
      </trkpt>
      <trkpt lat="47.29096" lon="4.99387">
        <ele>323.8</ele>
        <time>2015-03-17T13:32:46Z</time>
      </trkpt>
      <trkpt lat="47.29106" lon="4.99391">
        <ele>323.3</ele>
        <time>2015-03-17T13:32:53Z</time>
      </trkpt>
      <trkpt lat="47.29115" lon="4.99395">
        <ele>322.8</ele>
        <time>2015-03-17T13:33:01Z</time>
      </trkpt>
      <trkpt lat="47.29125" lon="4.994">
        <ele>322.3</ele>
        <time>2015-03-17T13:33:09Z</time>
      </trkpt>
      <trkpt lat="47.29133" lon="4.99405">
        <ele>321.6</ele>
        <time>2015-03-17T13:33:16Z</time>
      </trkpt>
      <trkpt lat="47.29141" lon="4.99412">
        <ele>321</ele>
        <time>2015-03-17T13:33:24Z</time>
      </trkpt>
      <trkpt lat="47.2915" lon="4.99419">
        <ele>320.3</ele>
        <time>2015-03-17T13:33:33Z</time>
      </trkpt>
      <trkpt lat="47.29158" lon="4.99426">
        <ele>319.4</ele>
        <time>2015-03-17T13:33:43Z</time>
      </trkpt>
      <trkpt lat="47.29166" lon="4.99433">
        <ele>318.5</ele>
        <time>2015-03-17T13:33:51Z</time>
      </trkpt>
      <trkpt lat="47.29175" lon="4.9943">
        <ele>319.3</ele>
        <time>2015-03-17T13:34:10Z</time>
      </trkpt>
      <trkpt lat="47.29185" lon="4.99428">
        <ele>320.2</ele>
        <time>2015-03-17T13:34:23Z</time>
      </trkpt>
      <trkpt lat="47.29193" lon="4.99425">
        <ele>321</ele>
        <time>2015-03-17T13:34:35Z</time>
      </trkpt>
      <trkpt lat="47.292" lon="4.99414">
        <ele>322.2</ele>
        <time>2015-03-17T13:34:52Z</time>
      </trkpt>
      <trkpt lat="47.29209" lon="4.99414">
        <ele>322.7</ele>
        <time>2015-03-17T13:35:07Z</time>
      </trkpt>
      <trkpt lat="47.29218" lon="4.9942">
        <ele>322.8</ele>
        <time>2015-03-17T13:35:17Z</time>
      </trkpt>
      <trkpt lat="47.29224" lon="4.9943">
        <ele>322.7</ele>
        <time>2015-03-17T13:35:29Z</time>
      </trkpt>
      <trkpt lat="47.29234" lon="4.99434">
        <ele>323.3</ele>
        <time>2015-03-17T13:35:38Z</time>
      </trkpt>
      <trkpt lat="47.29242" lon="4.99443">
        <ele>323.4</ele>
        <time>2015-03-17T13:35:52Z</time>
      </trkpt>
      <trkpt lat="47.29249" lon="4.9945">
        <ele>323.8</ele>
        <time>2015-03-17T13:36:01Z</time>
      </trkpt>
      <trkpt lat="47.29258" lon="4.99448">
        <ele>325.3</ele>
        <time>2015-03-17T13:36:14Z</time>
      </trkpt>
      <trkpt lat="47.29269" lon="4.9945">
        <ele>327</ele>
        <time>2015-03-17T13:36:20Z</time>
      </trkpt>
      <trkpt lat="47.29278" lon="4.99453">
        <ele>328.4</ele>
        <time>2015-03-17T13:36:28Z</time>
      </trkpt>
      <trkpt lat="47.29288" lon="4.99456">
        <ele>329.9</ele>
        <time>2015-03-17T13:36:35Z</time>
      </trkpt>
      <trkpt lat="47.29297" lon="4.99457">
        <ele>331.5</ele>
        <time>2015-03-17T13:36:45Z</time>
      </trkpt>
      <trkpt lat="47.29307" lon="4.99459">
        <ele>333.1</ele>
        <time>2015-03-17T13:36:56Z</time>
      </trkpt>
      <trkpt lat="47.29316" lon="4.99461">
        <ele>334.6</ele>
        <time>2015-03-17T13:37:04Z</time>
      </trkpt>
      <trkpt lat="47.29325" lon="4.99466">
        <ele>335.8</ele>
        <time>2015-03-17T13:37:16Z</time>
      </trkpt>
      <trkpt lat="47.29334" lon="4.99467">
        <ele>337.3</ele>
        <time>2015-03-17T13:37:29Z</time>
      </trkpt>
      <trkpt lat="47.29343" lon="4.99471">
        <ele>338</ele>
        <time>2015-03-17T13:37:35Z</time>
      </trkpt>
      <trkpt lat="47.29353" lon="4.99473">
        <ele>338.8</ele>
        <time>2015-03-17T13:37:45Z</time>
      </trkpt>
      <trkpt lat="47.29362" lon="4.99477">
        <ele>339.6</ele>
        <time>2015-03-17T13:37:53Z</time>
      </trkpt>
      <trkpt lat="47.29373" lon="4.99477">
        <ele>340.7</ele>
        <time>2015-03-17T13:38:03Z</time>
      </trkpt>
      <trkpt lat="47.29383" lon="4.99479">
        <ele>341.5</ele>
        <time>2015-03-17T13:38:13Z</time>
      </trkpt>
      <trkpt lat="47.29392" lon="4.99481">
        <ele>342.4</ele>
        <time>2015-03-17T13:38:25Z</time>
      </trkpt>
      <trkpt lat="47.29401" lon="4.99476">
        <ele>343.4</ele>
        <time>2015-03-17T13:39:06Z</time>
      </trkpt>
      <trkpt lat="47.29406" lon="4.99466">
        <ele>344.3</ele>
        <time>2015-03-17T13:39:25Z</time>
      </trkpt>
      <trkpt lat="47.29411" lon="4.99454">
        <ele>345.1</ele>
        <time>2015-03-17T13:39:34Z</time>
      </trkpt>
      <trkpt lat="47.29418" lon="4.99445">
        <ele>346.1</ele>
        <time>2015-03-17T13:39:49Z</time>
      </trkpt>
      <trkpt lat="47.29427" lon="4.99438">
        <ele>347</ele>
        <time>2015-03-17T13:39:56Z</time>
      </trkpt>
      <trkpt lat="47.29432" lon="4.99425">
        <ele>348</ele>
        <time>2015-03-17T13:40:07Z</time>
      </trkpt>
      <trkpt lat="47.29433" lon="4.99409">
        <ele>349.2</ele>
        <time>2015-03-17T13:40:19Z</time>
      </trkpt>
      <trkpt lat="47.29439" lon="4.99398">
        <ele>350.8</ele>
        <time>2015-03-17T13:40:36Z</time>
      </trkpt>
      <trkpt lat="47.29447" lon="4.99393">
        <ele>352.1</ele>
        <time>2015-03-17T13:40:47Z</time>
      </trkpt>
      <trkpt lat="47.29455" lon="4.99383">
        <ele>353.6</ele>
        <time>2015-03-17T13:41:05Z</time>
      </trkpt>
      <trkpt lat="47.29463" lon="4.99377">
        <ele>355</ele>
        <time>2015-03-17T13:44:15Z</time>
      </trkpt>
      <trkpt lat="47.29472" lon="4.99377">
        <ele>355.7</ele>
        <time>2015-03-17T13:44:28Z</time>
      </trkpt>
      <trkpt lat="47.2948" lon="4.99382">
        <ele>356.1</ele>
        <time>2015-03-17T13:44:41Z</time>
      </trkpt>
      <trkpt lat="47.29487" lon="4.99391">
        <ele>355.7</ele>
        <time>2015-03-17T13:44:50Z</time>
      </trkpt>
      <trkpt lat="47.29496" lon="4.99396">
        <ele>355.9</ele>
        <time>2015-03-17T13:45:46Z</time>
      </trkpt>
      <trkpt lat="47.29505" lon="4.99398">
        <ele>356.6</ele>
        <time>2015-03-17T13:45:54Z</time>
      </trkpt>
      <trkpt lat="47.29514" lon="4.99402">
        <ele>356.8</ele>
        <time>2015-03-17T13:46:07Z</time>
      </trkpt>
      <trkpt lat="47.29524" lon="4.99404">
        <ele>357.4</ele>
        <time>2015-03-17T13:46:18Z</time>
      </trkpt>
      <trkpt lat="47.29533" lon="4.994">
        <ele>358.7</ele>
        <time>2015-03-17T13:46:26Z</time>
      </trkpt>
      <trkpt lat="47.29542" lon="4.99397">
        <ele>359.7</ele>
        <time>2015-03-17T13:46:33Z</time>
      </trkpt>
      <trkpt lat="47.29551" lon="4.99393">
        <ele>361.1</ele>
        <time>2015-03-17T13:46:43Z</time>
      </trkpt>
      <trkpt lat="47.2956" lon="4.9939">
        <ele>362.2</ele>
        <time>2015-03-17T13:46:52Z</time>
      </trkpt>
      <trkpt lat="47.29569" lon="4.99387">
        <ele>363.3</ele>
        <time>2015-03-17T13:47:02Z</time>
      </trkpt>
      <trkpt lat="47.29578" lon="4.99378">
        <ele>365.2</ele>
        <time>2015-03-17T13:47:06Z</time>
      </trkpt>
      <trkpt lat="47.29584" lon="4.99367">
        <ele>367</ele>
        <time>2015-03-17T13:47:17Z</time>
      </trkpt>
      <trkpt lat="47.29592" lon="4.99361">
        <ele>367.9</ele>
        <time>2015-03-17T13:47:30Z</time>
      </trkpt>
      <trkpt lat="47.29601" lon="4.99356">
        <ele>368.7</ele>
        <time>2015-03-17T13:47:57Z</time>
      </trkpt>
      <trkpt lat="47.2961" lon="4.99359">
        <ele>368.5</ele>
        <time>2015-03-17T13:48:07Z</time>
      </trkpt>
      <trkpt lat="47.29618" lon="4.99366">
        <ele>367.8</ele>
        <time>2015-03-17T13:48:15Z</time>
      </trkpt>
      <trkpt lat="47.29626" lon="4.99376">
        <ele>367</ele>
        <time>2015-03-17T13:48:23Z</time>
      </trkpt>
      <trkpt lat="47.2963" lon="4.99389">
        <ele>365.7</ele>
        <time>2015-03-17T13:48:32Z</time>
      </trkpt>
      <trkpt lat="47.29629" lon="4.99402">
        <ele>364.3</ele>
        <time>2015-03-17T13:48:44Z</time>
      </trkpt>
      <trkpt lat="47.29635" lon="4.99411">
        <ele>363.4</ele>
        <time>2015-03-17T13:48:54Z</time>
      </trkpt>
      <trkpt lat="47.2964" lon="4.99423">
        <ele>362.5</ele>
        <time>2015-03-17T13:49:04Z</time>
      </trkpt>
      <trkpt lat="47.29648" lon="4.99428">
        <ele>362.2</ele>
        <time>2015-03-17T13:49:11Z</time>
      </trkpt>
      <trkpt lat="47.29658" lon="4.99428">
        <ele>362.6</ele>
        <time>2015-03-17T13:49:19Z</time>
      </trkpt>
      <trkpt lat="47.29667" lon="4.99424">
        <ele>363.2</ele>
        <time>2015-03-17T13:49:27Z</time>
      </trkpt>
      <trkpt lat="47.29678" lon="4.99424">
        <ele>363.8</ele>
        <time>2015-03-17T13:49:35Z</time>
      </trkpt>
      <trkpt lat="47.29687" lon="4.99426">
        <ele>364.2</ele>
        <time>2015-03-17T13:49:43Z</time>
      </trkpt>
      <trkpt lat="47.29697" lon="4.99429">
        <ele>364.3</ele>
        <time>2015-03-17T13:49:51Z</time>
      </trkpt>
      <trkpt lat="47.29704" lon="4.99438">
        <ele>363.8</ele>
        <time>2015-03-17T13:50:01Z</time>
      </trkpt>
      <trkpt lat="47.29712" lon="4.99447">
        <ele>363.3</ele>
        <time>2015-03-17T13:50:09Z</time>
      </trkpt>
      <trkpt lat="47.2972" lon="4.99455">
        <ele>363</ele>
        <time>2015-03-17T13:50:18Z</time>
      </trkpt>
      <trkpt lat="47.29728" lon="4.99461">
        <ele>363</ele>
        <time>2015-03-17T13:50:28Z</time>
      </trkpt>
      <trkpt lat="47.29738" lon="4.99465">
        <ele>363.2</ele>
        <time>2015-03-17T13:50:37Z</time>
      </trkpt>
      <trkpt lat="47.29746" lon="4.99471">
        <ele>363.2</ele>
        <time>2015-03-17T13:50:47Z</time>
      </trkpt>
      <trkpt lat="47.29755" lon="4.99472">
        <ele>363.4</ele>
        <time>2015-03-17T13:51:01Z</time>
      </trkpt>
      <trkpt lat="47.29765" lon="4.99472">
        <ele>363.5</ele>
        <time>2015-03-17T13:51:08Z</time>
      </trkpt>
      <trkpt lat="47.29775" lon="4.99474">
        <ele>363.4</ele>
        <time>2015-03-17T13:51:15Z</time>
      </trkpt>
      <trkpt lat="47.29785" lon="4.99475">
        <ele>363.2</ele>
        <time>2015-03-17T13:51:22Z</time>
      </trkpt>
      <trkpt lat="47.29792" lon="4.99483">
        <ele>362.5</ele>
        <time>2015-03-17T13:51:30Z</time>
      </trkpt>
      <trkpt lat="47.298" lon="4.9949">
        <ele>362</ele>
        <time>2015-03-17T13:51:39Z</time>
      </trkpt>
      <trkpt lat="47.29809" lon="4.99487">
        <ele>362.2</ele>
        <time>2015-03-17T13:51:48Z</time>
      </trkpt>
      <trkpt lat="47.29818" lon="4.99486">
        <ele>362.3</ele>
        <time>2015-03-17T13:52:03Z</time>
      </trkpt>
      <trkpt lat="47.29823" lon="4.99472">
        <ele>363.7</ele>
        <time>2015-03-17T13:52:15Z</time>
      </trkpt>
      <trkpt lat="47.29829" lon="4.99461">
        <ele>364.7</ele>
        <time>2015-03-17T13:52:20Z</time>
      </trkpt>
      <trkpt lat="47.29838" lon="4.99459">
        <ele>364.8</ele>
        <time>2015-03-17T13:52:29Z</time>
      </trkpt>
      <trkpt lat="47.29847" lon="4.99462">
        <ele>363.9</ele>
        <time>2015-03-17T13:52:39Z</time>
      </trkpt>
      <trkpt lat="47.29857" lon="4.99463">
        <ele>363.4</ele>
        <time>2015-03-17T13:52:50Z</time>
      </trkpt>
      <trkpt lat="47.29865" lon="4.99458">
        <ele>363.3</ele>
        <time>2015-03-17T13:53:00Z</time>
      </trkpt>
      <trkpt lat="47.29874" lon="4.9946">
        <ele>362.7</ele>
        <time>2015-03-17T13:53:12Z</time>
      </trkpt>
      <trkpt lat="47.29883" lon="4.99466">
        <ele>361.7</ele>
        <time>2015-03-17T13:53:19Z</time>
      </trkpt>
      <trkpt lat="47.29893" lon="4.99469">
        <ele>360.9</ele>
        <time>2015-03-17T13:53:25Z</time>
      </trkpt>
      <trkpt lat="47.29902" lon="4.9947">
        <ele>360.3</ele>
        <time>2015-03-17T13:53:31Z</time>
      </trkpt>
      <trkpt lat="47.29912" lon="4.9947">
        <ele>359.9</ele>
        <time>2015-03-17T13:53:39Z</time>
      </trkpt>
      <trkpt lat="47.29921" lon="4.99471">
        <ele>359.3</ele>
        <time>2015-03-17T13:53:50Z</time>
      </trkpt>
      <trkpt lat="47.2993" lon="4.99475">
        <ele>358.9</ele>
        <time>2015-03-17T13:53:58Z</time>
      </trkpt>
      <trkpt lat="47.29936" lon="4.99485">
        <ele>358.1</ele>
        <time>2015-03-17T13:54:05Z</time>
      </trkpt>
      <trkpt lat="47.29945" lon="4.99492">
        <ele>357.5</ele>
        <time>2015-03-17T13:54:15Z</time>
      </trkpt>
      <trkpt lat="47.29954" lon="4.99495">
        <ele>357.3</ele>
        <time>2015-03-17T13:54:22Z</time>
      </trkpt>
      <trkpt lat="47.29963" lon="4.995">
        <ele>357</ele>
        <time>2015-03-17T13:54:32Z</time>
      </trkpt>
      <trkpt lat="47.29972" lon="4.99497">
        <ele>357.2</ele>
        <time>2015-03-17T13:54:40Z</time>
      </trkpt>
      <trkpt lat="47.2998" lon="4.99491">
        <ele>357.3</ele>
        <time>2015-03-17T13:54:48Z</time>
      </trkpt>
      <trkpt lat="47.29986" lon="4.99481">
        <ele>357.7</ele>
        <time>2015-03-17T13:54:56Z</time>
      </trkpt>
      <trkpt lat="47.29994" lon="4.99473">
        <ele>357.8</ele>
        <time>2015-03-17T13:55:03Z</time>
      </trkpt>
      <trkpt lat="47.30002" lon="4.99466">
        <ele>357.9</ele>
        <time>2015-03-17T13:55:10Z</time>
      </trkpt>
      <trkpt lat="47.30008" lon="4.99455">
        <ele>358.2</ele>
        <time>2015-03-17T13:55:18Z</time>
      </trkpt>
      <trkpt lat="47.30012" lon="4.99442">
        <ele>358.6</ele>
        <time>2015-03-17T13:55:27Z</time>
      </trkpt>
      <trkpt lat="47.30018" lon="4.99432">
        <ele>358.9</ele>
        <time>2015-03-17T13:55:34Z</time>
      </trkpt>
      <trkpt lat="47.30024" lon="4.9942">
        <ele>359.2</ele>
        <time>2015-03-17T13:55:41Z</time>
      </trkpt>
      <trkpt lat="47.30025" lon="4.99407">
        <ele>359.8</ele>
        <time>2015-03-17T13:55:53Z</time>
      </trkpt>
      <trkpt lat="47.30029" lon="4.99394">
        <ele>360.5</ele>
        <time>2015-03-17T13:56:02Z</time>
      </trkpt>
      <trkpt lat="47.30033" lon="4.9938">
        <ele>361.1</ele>
        <time>2015-03-17T13:56:11Z</time>
      </trkpt>
      <trkpt lat="47.30038" lon="4.99369">
        <ele>361.6</ele>
        <time>2015-03-17T13:56:21Z</time>
      </trkpt>
      <trkpt lat="47.30046" lon="4.99362">
        <ele>361.8</ele>
        <time>2015-03-17T13:56:38Z</time>
      </trkpt>
      <trkpt lat="47.30055" lon="4.99356">
        <ele>361.9</ele>
        <time>2015-03-17T13:56:45Z</time>
      </trkpt>
      <trkpt lat="47.30062" lon="4.99348">
        <ele>362</ele>
        <time>2015-03-17T13:56:51Z</time>
      </trkpt>
      <trkpt lat="47.30066" lon="4.99334">
        <ele>362.4</ele>
        <time>2015-03-17T13:57:00Z</time>
      </trkpt>
      <trkpt lat="47.30071" lon="4.99322">
        <ele>363.1</ele>
        <time>2015-03-17T13:57:08Z</time>
      </trkpt>
      <trkpt lat="47.30067" lon="4.99309">
        <ele>364.1</ele>
        <time>2015-03-17T13:57:38Z</time>
      </trkpt>
      <trkpt lat="47.30059" lon="4.993">
        <ele>364.8</ele>
        <time>2015-03-17T13:57:45Z</time>
      </trkpt>
      <trkpt lat="47.30051" lon="4.99292">
        <ele>365.4</ele>
        <time>2015-03-17T13:58:07Z</time>
      </trkpt>
      <trkpt lat="47.30041" lon="4.99287">
        <ele>365.8</ele>
        <time>2015-03-17T13:58:13Z</time>
      </trkpt>
      <trkpt lat="47.30031" lon="4.99282">
        <ele>366.2</ele>
        <time>2015-03-17T13:58:18Z</time>
      </trkpt>
      <trkpt lat="47.30022" lon="4.99278">
        <ele>366.5</ele>
        <time>2015-03-17T13:58:25Z</time>
      </trkpt>
      <trkpt lat="47.30013" lon="4.99274">
        <ele>366.8</ele>
        <time>2015-03-17T13:58:34Z</time>
      </trkpt>
      <trkpt lat="47.30005" lon="4.99268">
        <ele>367.2</ele>
        <time>2015-03-17T13:58:44Z</time>
      </trkpt>
      <trkpt lat="47.29996" lon="4.99261">
        <ele>367.6</ele>
        <time>2015-03-17T13:58:53Z</time>
      </trkpt>
      <trkpt lat="47.29991" lon="4.9925">
        <ele>368.4</ele>
        <time>2015-03-17T13:59:01Z</time>
      </trkpt>
      <trkpt lat="47.29984" lon="4.9924">
        <ele>368.8</ele>
        <time>2015-03-17T13:59:11Z</time>
      </trkpt>
      <trkpt lat="47.29982" lon="4.99227">
        <ele>369.3</ele>
        <time>2015-03-17T13:59:35Z</time>
      </trkpt>
      <trkpt lat="47.29983" lon="4.99213">
        <ele>369.6</ele>
        <time>2015-03-17T13:59:42Z</time>
      </trkpt>
      <trkpt lat="47.29984" lon="4.99199">
        <ele>370</ele>
        <time>2015-03-17T13:59:50Z</time>
      </trkpt>
      <trkpt lat="47.29981" lon="4.99185">
        <ele>370.4</ele>
        <time>2015-03-17T13:59:57Z</time>
      </trkpt>
      <trkpt lat="47.2998" lon="4.99172">
        <ele>370.8</ele>
        <time>2015-03-17T14:00:04Z</time>
      </trkpt>
      <trkpt lat="47.29982" lon="4.99159">
        <ele>371</ele>
        <time>2015-03-17T14:00:11Z</time>
      </trkpt>
      <trkpt lat="47.29983" lon="4.99146">
        <ele>371.1</ele>
        <time>2015-03-17T14:00:29Z</time>
      </trkpt>
      <trkpt lat="47.29987" lon="4.99132">
        <ele>371.1</ele>
        <time>2015-03-17T14:01:29Z</time>
      </trkpt>
      <trkpt lat="47.2999" lon="4.99119">
        <ele>371.1</ele>
        <time>2015-03-17T14:01:37Z</time>
      </trkpt>
      <trkpt lat="47.29994" lon="4.99105">
        <ele>371.1</ele>
        <time>2015-03-17T14:01:45Z</time>
      </trkpt>
      <trkpt lat="47.29999" lon="4.99092">
        <ele>371</ele>
        <time>2015-03-17T14:01:54Z</time>
      </trkpt>
      <trkpt lat="47.30005" lon="4.99081">
        <ele>370.8</ele>
        <time>2015-03-17T14:02:02Z</time>
      </trkpt>
      <trkpt lat="47.30013" lon="4.99072">
        <ele>370.6</ele>
        <time>2015-03-17T14:02:11Z</time>
      </trkpt>
      <trkpt lat="47.30017" lon="4.9906">
        <ele>370.4</ele>
        <time>2015-03-17T14:02:19Z</time>
      </trkpt>
      <trkpt lat="47.30021" lon="4.99048">
        <ele>370.3</ele>
        <time>2015-03-17T14:02:31Z</time>
      </trkpt>
      <trkpt lat="47.30025" lon="4.99035">
        <ele>370.3</ele>
        <time>2015-03-17T14:02:40Z</time>
      </trkpt>
      <trkpt lat="47.30029" lon="4.99022">
        <ele>370.2</ele>
        <time>2015-03-17T14:02:48Z</time>
      </trkpt>
      <trkpt lat="47.30034" lon="4.9901">
        <ele>370.1</ele>
        <time>2015-03-17T14:02:57Z</time>
      </trkpt>
      <trkpt lat="47.30033" lon="4.98997">
        <ele>370.2</ele>
        <time>2015-03-17T14:07:54Z</time>
      </trkpt>
      <trkpt lat="47.30042" lon="4.99001">
        <ele>370</ele>
        <time>2015-03-17T14:08:13Z</time>
      </trkpt>
      <trkpt lat="47.30051" lon="4.99001">
        <ele>369.8</ele>
        <time>2015-03-17T14:08:21Z</time>
      </trkpt>
      <trkpt lat="47.3006" lon="4.99006">
        <ele>369.5</ele>
        <time>2015-03-17T14:08:28Z</time>
      </trkpt>
      <trkpt lat="47.30069" lon="4.99009">
        <ele>369.3</ele>
        <time>2015-03-17T14:08:37Z</time>
      </trkpt>
      <trkpt lat="47.30079" lon="4.99007">
        <ele>369</ele>
        <time>2015-03-17T14:08:45Z</time>
      </trkpt>
      <trkpt lat="47.30079" lon="4.98993">
        <ele>369</ele>
        <time>2015-03-17T14:08:52Z</time>
      </trkpt>
      <trkpt lat="47.30077" lon="4.9898">
        <ele>368.9</ele>
        <time>2015-03-17T14:08:59Z</time>
      </trkpt>
      <trkpt lat="47.30075" lon="4.98966">
        <ele>368.8</ele>
        <time>2015-03-17T14:09:07Z</time>
      </trkpt>
      <trkpt lat="47.30073" lon="4.98952">
        <ele>368.8</ele>
        <time>2015-03-17T14:09:15Z</time>
      </trkpt>
      <trkpt lat="47.3007" lon="4.98938">
        <ele>368.7</ele>
        <time>2015-03-17T14:09:23Z</time>
      </trkpt>
      <trkpt lat="47.30069" lon="4.98923">
        <ele>368.6</ele>
        <time>2015-03-17T14:09:31Z</time>
      </trkpt>
      <trkpt lat="47.30067" lon="4.98909">
        <ele>368.7</ele>
        <time>2015-03-17T14:09:39Z</time>
      </trkpt>
      <trkpt lat="47.30067" lon="4.98894">
        <ele>369</ele>
        <time>2015-03-17T14:09:47Z</time>
      </trkpt>
      <trkpt lat="47.30066" lon="4.9888">
        <ele>369.4</ele>
        <time>2015-03-17T14:09:55Z</time>
      </trkpt>
      <trkpt lat="47.30063" lon="4.98866">
        <ele>369.8</ele>
        <time>2015-03-17T14:10:03Z</time>
      </trkpt>
      <trkpt lat="47.3006" lon="4.98851">
        <ele>370.3</ele>
        <time>2015-03-17T14:10:11Z</time>
      </trkpt>
      <trkpt lat="47.30059" lon="4.98837">
        <ele>370.7</ele>
        <time>2015-03-17T14:10:19Z</time>
      </trkpt>
      <trkpt lat="47.30058" lon="4.98824">
        <ele>371</ele>
        <time>2015-03-17T14:10:27Z</time>
      </trkpt>
      <trkpt lat="47.30057" lon="4.98809">
        <ele>371.2</ele>
        <time>2015-03-17T14:10:35Z</time>
      </trkpt>
      <trkpt lat="47.30054" lon="4.98796">
        <ele>371.5</ele>
        <time>2015-03-17T14:10:43Z</time>
      </trkpt>
      <trkpt lat="47.3005" lon="4.98784">
        <ele>372</ele>
        <time>2015-03-17T14:10:51Z</time>
      </trkpt>
      <trkpt lat="47.30047" lon="4.98772">
        <ele>372.4</ele>
        <time>2015-03-17T14:11:00Z</time>
      </trkpt>
      <trkpt lat="47.30043" lon="4.98758">
        <ele>372.8</ele>
        <time>2015-03-17T14:11:09Z</time>
      </trkpt>
      <trkpt lat="47.30041" lon="4.98744">
        <ele>373.1</ele>
        <time>2015-03-17T14:11:17Z</time>
      </trkpt>
      <trkpt lat="47.30042" lon="4.98731">
        <ele>373.2</ele>
        <time>2015-03-17T14:11:26Z</time>
      </trkpt>
      <trkpt lat="47.30046" lon="4.98718">
        <ele>373.1</ele>
        <time>2015-03-17T14:11:34Z</time>
      </trkpt>
      <trkpt lat="47.30052" lon="4.98706">
        <ele>372.9</ele>
        <time>2015-03-17T14:11:42Z</time>
      </trkpt>
      <trkpt lat="47.30059" lon="4.98696">
        <ele>372.7</ele>
        <time>2015-03-17T14:11:51Z</time>
      </trkpt>
      <trkpt lat="47.30067" lon="4.98686">
        <ele>372.4</ele>
        <time>2015-03-17T14:11:59Z</time>
      </trkpt>
      <trkpt lat="47.30075" lon="4.98677">
        <ele>372.2</ele>
        <time>2015-03-17T14:12:07Z</time>
      </trkpt>
      <trkpt lat="47.3008" lon="4.98665">
        <ele>372.1</ele>
        <time>2015-03-17T14:12:15Z</time>
      </trkpt>
      <trkpt lat="47.30085" lon="4.98653">
        <ele>371.8</ele>
        <time>2015-03-17T14:12:24Z</time>
      </trkpt>
      <trkpt lat="47.30092" lon="4.98643">
        <ele>371.2</ele>
        <time>2015-03-17T14:12:31Z</time>
      </trkpt>
      <trkpt lat="47.30098" lon="4.98633">
        <ele>370.5</ele>
        <time>2015-03-17T14:12:39Z</time>
      </trkpt>
      <trkpt lat="47.30104" lon="4.98621">
        <ele>370</ele>
        <time>2015-03-17T14:12:47Z</time>
      </trkpt>
      <trkpt lat="47.30111" lon="4.98611">
        <ele>369.4</ele>
        <time>2015-03-17T14:12:56Z</time>
      </trkpt>
      <trkpt lat="47.30118" lon="4.98602">
        <ele>368.7</ele>
        <time>2015-03-17T14:13:05Z</time>
      </trkpt>
      <trkpt lat="47.30125" lon="4.98592">
        <ele>368</ele>
        <time>2015-03-17T14:13:14Z</time>
      </trkpt>
      <trkpt lat="47.30131" lon="4.98581">
        <ele>367.4</ele>
        <time>2015-03-17T14:13:22Z</time>
      </trkpt>
      <trkpt lat="47.30134" lon="4.98568">
        <ele>367.1</ele>
        <time>2015-03-17T14:13:29Z</time>
      </trkpt>
      <trkpt lat="47.30137" lon="4.98554">
        <ele>366.9</ele>
        <time>2015-03-17T14:13:38Z</time>
      </trkpt>
      <trkpt lat="47.30138" lon="4.9854">
        <ele>366.9</ele>
        <time>2015-03-17T14:13:46Z</time>
      </trkpt>
      <trkpt lat="47.3014" lon="4.98526">
        <ele>366.8</ele>
        <time>2015-03-17T14:13:54Z</time>
      </trkpt>
      <trkpt lat="47.30142" lon="4.98511">
        <ele>366.7</ele>
        <time>2015-03-17T14:14:02Z</time>
      </trkpt>
      <trkpt lat="47.30143" lon="4.98498">
        <ele>366.6</ele>
        <time>2015-03-17T14:14:10Z</time>
      </trkpt>
      <trkpt lat="47.30145" lon="4.98484">
        <ele>366.2</ele>
        <time>2015-03-17T14:14:18Z</time>
      </trkpt>
      <trkpt lat="47.30149" lon="4.98472">
        <ele>365.7</ele>
        <time>2015-03-17T14:14:27Z</time>
      </trkpt>
      <trkpt lat="47.30149" lon="4.98458">
        <ele>365.5</ele>
        <time>2015-03-17T14:14:35Z</time>
      </trkpt>
      <trkpt lat="47.30148" lon="4.98443">
        <ele>365.2</ele>
        <time>2015-03-17T14:14:44Z</time>
      </trkpt>
      <trkpt lat="47.30147" lon="4.98429">
        <ele>365.1</ele>
        <time>2015-03-17T14:14:53Z</time>
      </trkpt>
      <trkpt lat="47.30144" lon="4.98415">
        <ele>365.1</ele>
        <time>2015-03-17T14:15:01Z</time>
      </trkpt>
      <trkpt lat="47.30141" lon="4.98402">
        <ele>365.4</ele>
        <time>2015-03-17T14:15:09Z</time>
      </trkpt>
      <trkpt lat="47.30139" lon="4.98387">
        <ele>365.6</ele>
        <time>2015-03-17T14:15:17Z</time>
      </trkpt>
      <trkpt lat="47.30139" lon="4.98374">
        <ele>365.5</ele>
        <time>2015-03-17T14:15:26Z</time>
      </trkpt>
      <trkpt lat="47.30142" lon="4.98361">
        <ele>365.2</ele>
        <time>2015-03-17T14:15:35Z</time>
      </trkpt>
      <trkpt lat="47.30144" lon="4.98348">
        <ele>364.9</ele>
        <time>2015-03-17T14:15:43Z</time>
      </trkpt>
      <trkpt lat="47.30148" lon="4.98335">
        <ele>364.6</ele>
        <time>2015-03-17T14:15:52Z</time>
      </trkpt>
      <trkpt lat="47.30151" lon="4.98322">
        <ele>364.3</ele>
        <time>2015-03-17T14:16:01Z</time>
      </trkpt>
      <trkpt lat="47.30155" lon="4.9831">
        <ele>364.1</ele>
        <time>2015-03-17T14:16:10Z</time>
      </trkpt>
      <trkpt lat="47.30157" lon="4.98295">
        <ele>364.1</ele>
        <time>2015-03-17T14:16:18Z</time>
      </trkpt>
      <trkpt lat="47.30158" lon="4.98282">
        <ele>364.1</ele>
        <time>2015-03-17T14:16:27Z</time>
      </trkpt>
      <trkpt lat="47.30162" lon="4.98268">
        <ele>364.1</ele>
        <time>2015-03-17T14:16:36Z</time>
      </trkpt>
      <trkpt lat="47.30165" lon="4.98254">
        <ele>364</ele>
        <time>2015-03-17T14:16:45Z</time>
      </trkpt>
      <trkpt lat="47.30171" lon="4.98243">
        <ele>363.4</ele>
        <time>2015-03-17T14:16:53Z</time>
      </trkpt>
      <trkpt lat="47.30172" lon="4.9823">
        <ele>363.2</ele>
        <time>2015-03-17T14:17:01Z</time>
      </trkpt>
      <trkpt lat="47.30169" lon="4.98217">
        <ele>363.4</ele>
        <time>2015-03-17T14:17:11Z</time>
      </trkpt>
      <trkpt lat="47.30164" lon="4.98205">
        <ele>363.6</ele>
        <time>2015-03-17T14:17:24Z</time>
      </trkpt>
      <trkpt lat="47.30168" lon="4.98193">
        <ele>363.2</ele>
        <time>2015-03-17T14:17:32Z</time>
      </trkpt>
      <trkpt lat="47.30174" lon="4.98182">
        <ele>362.7</ele>
        <time>2015-03-17T14:17:39Z</time>
      </trkpt>
      <trkpt lat="47.30183" lon="4.98179">
        <ele>362.2</ele>
        <time>2015-03-17T14:17:47Z</time>
      </trkpt>
      <trkpt lat="47.30193" lon="4.98177">
        <ele>361.6</ele>
        <time>2015-03-17T14:17:57Z</time>
      </trkpt>
      <trkpt lat="47.30204" lon="4.98181">
        <ele>361</ele>
        <time>2015-03-17T14:18:06Z</time>
      </trkpt>
      <trkpt lat="47.30213" lon="4.98184">
        <ele>360.3</ele>
        <time>2015-03-17T14:18:14Z</time>
      </trkpt>
      <trkpt lat="47.30223" lon="4.98181">
        <ele>359.8</ele>
        <time>2015-03-17T14:18:23Z</time>
      </trkpt>
      <trkpt lat="47.3023" lon="4.98172">
        <ele>359.7</ele>
        <time>2015-03-17T14:18:40Z</time>
      </trkpt>
      <trkpt lat="47.30235" lon="4.9816">
        <ele>360</ele>
        <time>2015-03-17T14:18:51Z</time>
      </trkpt>
      <trkpt lat="47.30241" lon="4.9815">
        <ele>360.1</ele>
        <time>2015-03-17T14:19:00Z</time>
      </trkpt>
      <trkpt lat="47.30247" lon="4.98139">
        <ele>360.1</ele>
        <time>2015-03-17T14:19:08Z</time>
      </trkpt>
      <trkpt lat="47.30253" lon="4.9813">
        <ele>360.2</ele>
        <time>2015-03-17T14:19:16Z</time>
      </trkpt>
      <trkpt lat="47.3026" lon="4.98121">
        <ele>360.4</ele>
        <time>2015-03-17T14:19:23Z</time>
      </trkpt>
      <trkpt lat="47.30267" lon="4.98113">
        <ele>360.4</ele>
        <time>2015-03-17T14:19:31Z</time>
      </trkpt>
      <trkpt lat="47.30274" lon="4.98105">
        <ele>360.5</ele>
        <time>2015-03-17T14:19:39Z</time>
      </trkpt>
      <trkpt lat="47.30281" lon="4.98094">
        <ele>360.6</ele>
        <time>2015-03-17T14:19:47Z</time>
      </trkpt>
      <trkpt lat="47.30289" lon="4.98085">
        <ele>360.6</ele>
        <time>2015-03-17T14:19:55Z</time>
      </trkpt>
      <trkpt lat="47.30293" lon="4.98074">
        <ele>360.6</ele>
        <time>2015-03-17T14:20:03Z</time>
      </trkpt>
      <trkpt lat="47.30292" lon="4.9806">
        <ele>360.9</ele>
        <time>2015-03-17T14:20:11Z</time>
      </trkpt>
      <trkpt lat="47.30287" lon="4.98049">
        <ele>361.3</ele>
        <time>2015-03-17T14:20:20Z</time>
      </trkpt>
      <trkpt lat="47.30283" lon="4.98037">
        <ele>361.6</ele>
        <time>2015-03-17T14:20:29Z</time>
      </trkpt>
      <trkpt lat="47.30279" lon="4.98025">
        <ele>361.9</ele>
        <time>2015-03-17T14:20:38Z</time>
      </trkpt>
      <trkpt lat="47.30274" lon="4.98013">
        <ele>362.2</ele>
        <time>2015-03-17T14:20:47Z</time>
      </trkpt>
      <trkpt lat="47.30269" lon="4.98001">
        <ele>362.5</ele>
        <time>2015-03-17T14:20:56Z</time>
      </trkpt>
      <trkpt lat="47.30263" lon="4.97989">
        <ele>363.1</ele>
        <time>2015-03-17T14:21:05Z</time>
      </trkpt>
      <trkpt lat="47.30259" lon="4.97976">
        <ele>363.7</ele>
        <time>2015-03-17T14:21:15Z</time>
      </trkpt>
      <trkpt lat="47.30251" lon="4.97968">
        <ele>364.2</ele>
        <time>2015-03-17T14:21:24Z</time>
      </trkpt>
      <trkpt lat="47.30246" lon="4.97956">
        <ele>364.7</ele>
        <time>2015-03-17T14:21:32Z</time>
      </trkpt>
      <trkpt lat="47.30239" lon="4.97947">
        <ele>365.3</ele>
        <time>2015-03-17T14:21:40Z</time>
      </trkpt>
      <trkpt lat="47.30233" lon="4.97935">
        <ele>365.8</ele>
        <time>2015-03-17T14:21:50Z</time>
      </trkpt>
      <trkpt lat="47.30229" lon="4.97924">
        <ele>366.3</ele>
        <time>2015-03-17T14:21:58Z</time>
      </trkpt>
      <trkpt lat="47.30223" lon="4.97913">
        <ele>366.8</ele>
        <time>2015-03-17T14:22:06Z</time>
      </trkpt>
      <trkpt lat="47.30218" lon="4.97901">
        <ele>367.3</ele>
        <time>2015-03-17T14:22:16Z</time>
      </trkpt>
      <trkpt lat="47.30213" lon="4.97888">
        <ele>367.8</ele>
        <time>2015-03-17T14:22:24Z</time>
      </trkpt>
      <trkpt lat="47.30208" lon="4.97875">
        <ele>368.3</ele>
        <time>2015-03-17T14:22:32Z</time>
      </trkpt>
      <trkpt lat="47.30203" lon="4.97863">
        <ele>368.7</ele>
        <time>2015-03-17T14:22:42Z</time>
      </trkpt>
      <trkpt lat="47.30198" lon="4.97851">
        <ele>369.1</ele>
        <time>2015-03-17T14:22:49Z</time>
      </trkpt>
      <trkpt lat="47.30193" lon="4.97838">
        <ele>369.5</ele>
        <time>2015-03-17T14:22:56Z</time>
      </trkpt>
      <trkpt lat="47.30189" lon="4.97827">
        <ele>369.9</ele>
        <time>2015-03-17T14:23:04Z</time>
      </trkpt>
      <trkpt lat="47.30183" lon="4.97816">
        <ele>370.2</ele>
        <time>2015-03-17T14:23:13Z</time>
      </trkpt>
      <trkpt lat="47.30177" lon="4.97804">
        <ele>370.6</ele>
        <time>2015-03-17T14:23:21Z</time>
      </trkpt>
      <trkpt lat="47.30171" lon="4.97793">
        <ele>370.9</ele>
        <time>2015-03-17T14:23:29Z</time>
      </trkpt>
      <trkpt lat="47.30166" lon="4.97781">
        <ele>371.3</ele>
        <time>2015-03-17T14:23:37Z</time>
      </trkpt>
      <trkpt lat="47.3016" lon="4.9777">
        <ele>371.6</ele>
        <time>2015-03-17T14:23:45Z</time>
      </trkpt>
      <trkpt lat="47.30154" lon="4.97759">
        <ele>372</ele>
        <time>2015-03-17T14:23:55Z</time>
      </trkpt>
      <trkpt lat="47.30149" lon="4.97748">
        <ele>372.3</ele>
        <time>2015-03-17T14:24:04Z</time>
      </trkpt>
      <trkpt lat="47.30144" lon="4.97737">
        <ele>372.6</ele>
        <time>2015-03-17T14:24:12Z</time>
      </trkpt>
      <trkpt lat="47.30139" lon="4.97725">
        <ele>373</ele>
        <time>2015-03-17T14:24:20Z</time>
      </trkpt>
      <trkpt lat="47.30132" lon="4.97714">
        <ele>373.3</ele>
        <time>2015-03-17T14:24:29Z</time>
      </trkpt>
      <trkpt lat="47.30127" lon="4.97702">
        <ele>373.6</ele>
        <time>2015-03-17T14:24:37Z</time>
      </trkpt>
      <trkpt lat="47.30122" lon="4.9769">
        <ele>374</ele>
        <time>2015-03-17T14:24:45Z</time>
      </trkpt>
      <trkpt lat="47.30117" lon="4.97678">
        <ele>374.3</ele>
        <time>2015-03-17T14:24:54Z</time>
      </trkpt>
      <trkpt lat="47.30112" lon="4.97666">
        <ele>374.7</ele>
        <time>2015-03-17T14:25:02Z</time>
      </trkpt>
      <trkpt lat="47.30106" lon="4.97655">
        <ele>375</ele>
        <time>2015-03-17T14:25:11Z</time>
      </trkpt>
      <trkpt lat="47.301" lon="4.97645">
        <ele>375.3</ele>
        <time>2015-03-17T14:25:19Z</time>
      </trkpt>
      <trkpt lat="47.30094" lon="4.97633">
        <ele>375.7</ele>
        <time>2015-03-17T14:25:28Z</time>
      </trkpt>
      <trkpt lat="47.30088" lon="4.97621">
        <ele>376</ele>
        <time>2015-03-17T14:25:36Z</time>
      </trkpt>
      <trkpt lat="47.30083" lon="4.97608">
        <ele>376.4</ele>
        <time>2015-03-17T14:25:45Z</time>
      </trkpt>
      <trkpt lat="47.30078" lon="4.97596">
        <ele>376.9</ele>
        <time>2015-03-17T14:25:53Z</time>
      </trkpt>
      <trkpt lat="47.30075" lon="4.97583">
        <ele>377.3</ele>
        <time>2015-03-17T14:26:00Z</time>
      </trkpt>
      <trkpt lat="47.30068" lon="4.9757">
        <ele>377.7</ele>
        <time>2015-03-17T14:26:09Z</time>
      </trkpt>
      <trkpt lat="47.30062" lon="4.97561">
        <ele>378</ele>
        <time>2015-03-17T14:26:16Z</time>
      </trkpt>
      <trkpt lat="47.30054" lon="4.97551">
        <ele>378.3</ele>
        <time>2015-03-17T14:26:24Z</time>
      </trkpt>
      <trkpt lat="47.30048" lon="4.97539">
        <ele>378.6</ele>
        <time>2015-03-17T14:26:32Z</time>
      </trkpt>
      <trkpt lat="47.30043" lon="4.97527">
        <ele>378.8</ele>
        <time>2015-03-17T14:26:40Z</time>
      </trkpt>
      <trkpt lat="47.30038" lon="4.97515">
        <ele>379</ele>
        <time>2015-03-17T14:26:49Z</time>
      </trkpt>
      <trkpt lat="47.30031" lon="4.97504">
        <ele>379.2</ele>
        <time>2015-03-17T14:26:57Z</time>
      </trkpt>
      <trkpt lat="47.30025" lon="4.97494">
        <ele>379.4</ele>
        <time>2015-03-17T14:27:05Z</time>
      </trkpt>
      <trkpt lat="47.30016" lon="4.97489">
        <ele>379.6</ele>
        <time>2015-03-17T14:27:14Z</time>
      </trkpt>
      <trkpt lat="47.30007" lon="4.97484">
        <ele>379.8</ele>
        <time>2015-03-17T14:27:22Z</time>
      </trkpt>
      <trkpt lat="47.3" lon="4.97475">
        <ele>380</ele>
        <time>2015-03-17T14:27:31Z</time>
      </trkpt>
      <trkpt lat="47.29992" lon="4.97465">
        <ele>380.3</ele>
        <time>2015-03-17T14:27:40Z</time>
      </trkpt>
      <trkpt lat="47.29985" lon="4.97456">
        <ele>380.6</ele>
        <time>2015-03-17T14:27:49Z</time>
      </trkpt>
      <trkpt lat="47.29978" lon="4.97448">
        <ele>380.9</ele>
        <time>2015-03-17T14:28:00Z</time>
      </trkpt>
      <trkpt lat="47.29969" lon="4.97446">
        <ele>381.3</ele>
        <time>2015-03-17T14:28:12Z</time>
      </trkpt>
      <trkpt lat="47.29962" lon="4.97435">
        <ele>381.5</ele>
        <time>2015-03-17T14:31:51Z</time>
      </trkpt>
      <trkpt lat="47.29957" lon="4.97424">
        <ele>381.6</ele>
        <time>2015-03-17T14:33:42Z</time>
      </trkpt>
      <trkpt lat="47.29953" lon="4.97411">
        <ele>381.7</ele>
        <time>2015-03-17T14:33:53Z</time>
      </trkpt>
      <trkpt lat="47.2995" lon="4.97397">
        <ele>381.9</ele>
        <time>2015-03-17T14:34:02Z</time>
      </trkpt>
      <trkpt lat="47.29947" lon="4.97383">
        <ele>382.1</ele>
        <time>2015-03-17T14:34:10Z</time>
      </trkpt>
      <trkpt lat="47.29944" lon="4.9737">
        <ele>382.2</ele>
        <time>2015-03-17T14:34:18Z</time>
      </trkpt>
      <trkpt lat="47.29944" lon="4.97356">
        <ele>382.3</ele>
        <time>2015-03-17T14:34:26Z</time>
      </trkpt>
      <trkpt lat="47.29939" lon="4.97345">
        <ele>382.4</ele>
        <time>2015-03-17T14:34:32Z</time>
      </trkpt>
      <trkpt lat="47.29935" lon="4.97332">
        <ele>382.5</ele>
        <time>2015-03-17T14:34:40Z</time>
      </trkpt>
      <trkpt lat="47.29937" lon="4.97319">
        <ele>382.3</ele>
        <time>2015-03-17T14:34:50Z</time>
      </trkpt>
      <trkpt lat="47.29939" lon="4.97305">
        <ele>382</ele>
        <time>2015-03-17T14:34:59Z</time>
      </trkpt>
      <trkpt lat="47.29936" lon="4.97291">
        <ele>381.9</ele>
        <time>2015-03-17T14:35:08Z</time>
      </trkpt>
      <trkpt lat="47.29931" lon="4.97279">
        <ele>381.9</ele>
        <time>2015-03-17T14:35:17Z</time>
      </trkpt>
      <trkpt lat="47.29928" lon="4.97266">
        <ele>381.8</ele>
        <time>2015-03-17T14:35:31Z</time>
      </trkpt>
      <trkpt lat="47.29923" lon="4.97254">
        <ele>381.8</ele>
        <time>2015-03-17T14:35:39Z</time>
      </trkpt>
      <trkpt lat="47.29916" lon="4.97244">
        <ele>381.8</ele>
        <time>2015-03-17T14:35:47Z</time>
      </trkpt>
      <trkpt lat="47.29909" lon="4.97236">
        <ele>381.6</ele>
        <time>2015-03-17T14:35:54Z</time>
      </trkpt>
      <trkpt lat="47.29903" lon="4.97225">
        <ele>381.2</ele>
        <time>2015-03-17T14:36:01Z</time>
      </trkpt>
      <trkpt lat="47.29897" lon="4.97215">
        <ele>380.8</ele>
        <time>2015-03-17T14:36:09Z</time>
      </trkpt>
      <trkpt lat="47.29888" lon="4.97209">
        <ele>380.7</ele>
        <time>2015-03-17T14:36:18Z</time>
      </trkpt>
      <trkpt lat="47.29882" lon="4.97199">
        <ele>380.3</ele>
        <time>2015-03-17T14:36:27Z</time>
      </trkpt>
      <trkpt lat="47.29873" lon="4.97192">
        <ele>380</ele>
        <time>2015-03-17T14:36:34Z</time>
      </trkpt>
      <trkpt lat="47.29864" lon="4.97185">
        <ele>379.8</ele>
        <time>2015-03-17T14:36:43Z</time>
      </trkpt>
      <trkpt lat="47.29859" lon="4.97174">
        <ele>379.3</ele>
        <time>2015-03-17T14:36:56Z</time>
      </trkpt>
      <trkpt lat="47.2985" lon="4.9717">
        <ele>379.1</ele>
        <time>2015-03-17T14:37:06Z</time>
      </trkpt>
      <trkpt lat="47.29841" lon="4.97173">
        <ele>379.3</ele>
        <time>2015-03-17T14:37:23Z</time>
      </trkpt>
      <trkpt lat="47.29832" lon="4.9718">
        <ele>379.7</ele>
        <time>2015-03-17T14:37:37Z</time>
      </trkpt>
      <trkpt lat="47.29824" lon="4.97185">
        <ele>380.4</ele>
        <time>2015-03-17T14:38:32Z</time>
      </trkpt>
      <trkpt lat="47.29815" lon="4.97179">
        <ele>380.6</ele>
        <time>2015-03-17T14:38:50Z</time>
      </trkpt>
      <trkpt lat="47.29808" lon="4.97172">
        <ele>380.7</ele>
        <time>2015-03-17T14:39:02Z</time>
      </trkpt>
      <trkpt lat="47.29799" lon="4.97166">
        <ele>381.1</ele>
        <time>2015-03-17T14:39:15Z</time>
      </trkpt>
      <trkpt lat="47.29791" lon="4.97156">
        <ele>381.5</ele>
        <time>2015-03-17T14:39:26Z</time>
      </trkpt>
      <trkpt lat="47.29784" lon="4.97147">
        <ele>381.9</ele>
        <time>2015-03-17T14:39:33Z</time>
      </trkpt>
      <trkpt lat="47.29777" lon="4.97137">
        <ele>382.3</ele>
        <time>2015-03-17T14:39:41Z</time>
      </trkpt>
      <trkpt lat="47.29769" lon="4.97128">
        <ele>382.6</ele>
        <time>2015-03-17T14:39:50Z</time>
      </trkpt>
      <trkpt lat="47.29759" lon="4.97125">
        <ele>383.1</ele>
        <time>2015-03-17T14:39:59Z</time>
      </trkpt>
      <trkpt lat="47.2975" lon="4.97121">
        <ele>383.4</ele>
        <time>2015-03-17T14:40:08Z</time>
      </trkpt>
      <trkpt lat="47.29742" lon="4.97119">
        <ele>383.4</ele>
        <time>2015-03-17T14:40:19Z</time>
      </trkpt>
      <trkpt lat="47.29735" lon="4.9711">
        <ele>383.2</ele>
        <time>2015-03-17T14:40:57Z</time>
      </trkpt>
      <trkpt lat="47.29737" lon="4.97097">
        <ele>383</ele>
        <time>2015-03-17T14:41:18Z</time>
      </trkpt>
      <trkpt lat="47.29741" lon="4.97084">
        <ele>382.8</ele>
        <time>2015-03-17T14:41:28Z</time>
      </trkpt>
      <trkpt lat="47.29749" lon="4.97078">
        <ele>383.1</ele>
        <time>2015-03-17T14:41:38Z</time>
      </trkpt>
      <trkpt lat="47.29758" lon="4.97082">
        <ele>382.8</ele>
        <time>2015-03-17T14:41:44Z</time>
      </trkpt>
      <trkpt lat="47.29763" lon="4.97071">
        <ele>382.8</ele>
        <time>2015-03-17T14:41:56Z</time>
      </trkpt>
      <trkpt lat="47.29753" lon="4.97063">
        <ele>383.4</ele>
        <time>2015-03-17T14:42:24Z</time>
      </trkpt>
      <trkpt lat="47.29743" lon="4.97058">
        <ele>383.4</ele>
        <time>2015-03-17T14:42:28Z</time>
      </trkpt>
      <trkpt lat="47.29735" lon="4.97051">
        <ele>383.2</ele>
        <time>2015-03-17T14:42:35Z</time>
      </trkpt>
      <trkpt lat="47.29726" lon="4.97045">
        <ele>382.9</ele>
        <time>2015-03-17T14:42:47Z</time>
      </trkpt>
      <trkpt lat="47.29715" lon="4.97042">
        <ele>382.6</ele>
        <time>2015-03-17T14:43:01Z</time>
      </trkpt>
      <trkpt lat="47.29707" lon="4.97037">
        <ele>382.2</ele>
        <time>2015-03-17T14:43:05Z</time>
      </trkpt>
      <trkpt lat="47.29698" lon="4.97036">
        <ele>381.8</ele>
        <time>2015-03-17T14:43:17Z</time>
      </trkpt>
      <trkpt lat="47.29688" lon="4.97037">
        <ele>381.4</ele>
        <time>2015-03-17T14:43:43Z</time>
      </trkpt>
      <trkpt lat="47.29678" lon="4.97035">
        <ele>380.9</ele>
        <time>2015-03-17T14:43:52Z</time>
      </trkpt>
      <trkpt lat="47.29668" lon="4.97034">
        <ele>380.5</ele>
        <time>2015-03-17T14:44:00Z</time>
      </trkpt>
      <trkpt lat="47.29659" lon="4.97031">
        <ele>379.6</ele>
        <time>2015-03-17T14:44:26Z</time>
      </trkpt>
      <trkpt lat="47.2965" lon="4.97027">
        <ele>378.5</ele>
        <time>2015-03-17T14:44:47Z</time>
      </trkpt>
      <trkpt lat="47.29642" lon="4.97016">
        <ele>377.3</ele>
        <time>2015-03-17T14:45:06Z</time>
      </trkpt>
      <trkpt lat="47.29635" lon="4.97006">
        <ele>376</ele>
        <time>2015-03-17T14:45:22Z</time>
      </trkpt>
      <trkpt lat="47.29628" lon="4.96998">
        <ele>374.9</ele>
        <time>2015-03-17T14:45:28Z</time>
      </trkpt>
      <trkpt lat="47.2962" lon="4.96987">
        <ele>373.9</ele>
        <time>2015-03-17T14:45:34Z</time>
      </trkpt>
      <trkpt lat="47.29613" lon="4.96976">
        <ele>372.8</ele>
        <time>2015-03-17T14:45:42Z</time>
      </trkpt>
      <trkpt lat="47.29608" lon="4.96965">
        <ele>371.6</ele>
        <time>2015-03-17T14:45:49Z</time>
      </trkpt>
      <trkpt lat="47.29604" lon="4.96952">
        <ele>370.7</ele>
        <time>2015-03-17T14:45:56Z</time>
      </trkpt>
      <trkpt lat="47.29597" lon="4.96943">
        <ele>369.1</ele>
        <time>2015-03-17T14:48:15Z</time>
      </trkpt>
      <trkpt lat="47.29594" lon="4.96929">
        <ele>368</ele>
        <time>2015-03-17T14:59:47Z</time>
      </trkpt>
      <trkpt lat="47.29587" lon="4.96918">
        <ele>365.8</ele>
        <time>2015-03-17T14:59:53Z</time>
      </trkpt>
      <trkpt lat="47.29581" lon="4.96907">
        <ele>364.1</ele>
        <time>2015-03-17T15:00:13Z</time>
      </trkpt>
      <trkpt lat="47.29574" lon="4.96895">
        <ele>362.7</ele>
        <time>2015-03-17T15:00:20Z</time>
      </trkpt>
      <trkpt lat="47.29569" lon="4.96883">
        <ele>362</ele>
        <time>2015-03-17T15:00:32Z</time>
      </trkpt>
      <trkpt lat="47.29562" lon="4.96876">
        <ele>361.5</ele>
        <time>2015-03-17T15:00:48Z</time>
      </trkpt>
      <trkpt lat="47.29554" lon="4.96869">
        <ele>361.2</ele>
        <time>2015-03-17T15:00:59Z</time>
      </trkpt>
      <trkpt lat="47.29546" lon="4.96861">
        <ele>361.4</ele>
        <time>2015-03-17T15:01:58Z</time>
      </trkpt>
      <trkpt lat="47.29539" lon="4.96851">
        <ele>362</ele>
        <time>2015-03-17T15:02:37Z</time>
      </trkpt>
      <trkpt lat="47.29535" lon="4.96839">
        <ele>363.1</ele>
        <time>2015-03-17T15:02:42Z</time>
      </trkpt>
      <trkpt lat="47.29526" lon="4.96831">
        <ele>364.6</ele>
        <time>2015-03-17T15:02:50Z</time>
      </trkpt>
      <trkpt lat="47.29519" lon="4.96823">
        <ele>366.7</ele>
        <time>2015-03-17T15:04:56Z</time>
      </trkpt>
      <trkpt lat="47.29513" lon="4.96812">
        <ele>369.7</ele>
        <time>2015-03-17T15:07:56Z</time>
      </trkpt>
      <trkpt lat="47.29503" lon="4.96808">
        <ele>371.9</ele>
        <time>2015-03-17T15:08:09Z</time>
      </trkpt>
      <trkpt lat="47.29493" lon="4.96807">
        <ele>372.8</ele>
        <time>2015-03-17T15:08:17Z</time>
      </trkpt>
      <trkpt lat="47.29483" lon="4.96806">
        <ele>374.1</ele>
        <time>2015-03-17T15:08:41Z</time>
      </trkpt>
      <trkpt lat="47.29475" lon="4.96809">
        <ele>373.7</ele>
        <time>2015-03-17T15:08:47Z</time>
      </trkpt>
      <trkpt lat="47.29465" lon="4.96807">
        <ele>375.1</ele>
        <time>2015-03-17T15:08:54Z</time>
      </trkpt>
      <trkpt lat="47.29456" lon="4.96805">
        <ele>376</ele>
        <time>2015-03-17T15:09:10Z</time>
      </trkpt>
      <trkpt lat="47.29447" lon="4.96802">
        <ele>377.7</ele>
        <time>2015-03-17T15:09:26Z</time>
      </trkpt>
      <trkpt lat="47.29437" lon="4.96797">
        <ele>379.8</ele>
        <time>2015-03-17T15:09:39Z</time>
      </trkpt>
      <trkpt lat="47.29428" lon="4.96793">
        <ele>381.3</ele>
        <time>2015-03-17T15:10:09Z</time>
      </trkpt>
      <trkpt lat="47.29419" lon="4.96795">
        <ele>381.6</ele>
        <time>2015-03-17T15:10:14Z</time>
      </trkpt>
      <trkpt lat="47.2941" lon="4.96793">
        <ele>382.5</ele>
        <time>2015-03-17T15:10:24Z</time>
      </trkpt>
      <trkpt lat="47.294" lon="4.96799">
        <ele>381.7</ele>
        <time>2015-03-17T15:10:45Z</time>
      </trkpt>
      <trkpt lat="47.29392" lon="4.96807">
        <ele>380.2</ele>
        <time>2015-03-17T15:10:51Z</time>
      </trkpt>
      <trkpt lat="47.29389" lon="4.96819">
        <ele>377.2</ele>
        <time>2015-03-17T15:10:59Z</time>
      </trkpt>
      <trkpt lat="47.29387" lon="4.96833">
        <ele>374.1</ele>
        <time>2015-03-17T15:11:10Z</time>
      </trkpt>
      <trkpt lat="47.29383" lon="4.96845">
        <ele>371.7</ele>
        <time>2015-03-17T15:11:24Z</time>
      </trkpt>
      <trkpt lat="47.29376" lon="4.96855">
        <ele>369.9</ele>
        <time>2015-03-17T15:11:43Z</time>
      </trkpt>
      <trkpt lat="47.29367" lon="4.96863">
        <ele>368.7</ele>
        <time>2015-03-17T15:12:09Z</time>
      </trkpt>
      <trkpt lat="47.29359" lon="4.96873">
        <ele>367.5</ele>
        <time>2015-03-17T15:12:15Z</time>
      </trkpt>
      <trkpt lat="47.29351" lon="4.96878">
        <ele>367.3</ele>
        <time>2015-03-17T15:12:23Z</time>
      </trkpt>
      <trkpt lat="47.29341" lon="4.96879">
        <ele>368.2</ele>
        <time>2015-03-17T15:12:32Z</time>
      </trkpt>
      <trkpt lat="47.29331" lon="4.96882">
        <ele>369</ele>
        <time>2015-03-17T15:12:42Z</time>
      </trkpt>
      <trkpt lat="47.29322" lon="4.96878">
        <ele>371.5</ele>
        <time>2015-03-17T15:12:51Z</time>
      </trkpt>
      <trkpt lat="47.29314" lon="4.96873">
        <ele>374.2</ele>
        <time>2015-03-17T15:13:15Z</time>
      </trkpt>
      <trkpt lat="47.29305" lon="4.96874">
        <ele>375.5</ele>
        <time>2015-03-17T15:14:41Z</time>
      </trkpt>
      <trkpt lat="47.29297" lon="4.96869">
        <ele>378.2</ele>
        <time>2015-03-17T15:15:23Z</time>
      </trkpt>
      <trkpt lat="47.29291" lon="4.96856">
        <ele>381.9</ele>
        <time>2015-03-17T15:15:45Z</time>
      </trkpt>
      <trkpt lat="47.29288" lon="4.96844">
        <ele>385</ele>
        <time>2015-03-17T15:16:02Z</time>
      </trkpt>
      <trkpt lat="47.29282" lon="4.96833">
        <ele>388.2</ele>
        <time>2015-03-17T15:16:13Z</time>
      </trkpt>
      <trkpt lat="47.29278" lon="4.96821">
        <ele>390.7</ele>
        <time>2015-03-17T15:16:27Z</time>
      </trkpt>
      <trkpt lat="47.29271" lon="4.96811">
        <ele>393.1</ele>
        <time>2015-03-17T15:16:40Z</time>
      </trkpt>
      <trkpt lat="47.29264" lon="4.96802">
        <ele>395.4</ele>
        <time>2015-03-17T15:16:58Z</time>
      </trkpt>
      <trkpt lat="47.29259" lon="4.96788">
        <ele>397.7</ele>
        <time>2015-03-17T15:17:08Z</time>
      </trkpt>
      <trkpt lat="47.29251" lon="4.96779">
        <ele>399.7</ele>
        <time>2015-03-17T15:17:14Z</time>
      </trkpt>
      <trkpt lat="47.29245" lon="4.96769">
        <ele>400.9</ele>
        <time>2015-03-17T15:17:21Z</time>
      </trkpt>
      <trkpt lat="47.29241" lon="4.96757">
        <ele>402.2</ele>
        <time>2015-03-17T15:17:29Z</time>
      </trkpt>
      <trkpt lat="47.29237" lon="4.96744">
        <ele>403.1</ele>
        <time>2015-03-17T15:17:36Z</time>
      </trkpt>
      <trkpt lat="47.29231" lon="4.96735">
        <ele>403.3</ele>
        <time>2015-03-17T15:17:46Z</time>
      </trkpt>
      <trkpt lat="47.29222" lon="4.96731">
        <ele>403.4</ele>
        <time>2015-03-17T15:17:54Z</time>
      </trkpt>
      <trkpt lat="47.29212" lon="4.96727">
        <ele>403.6</ele>
        <time>2015-03-17T15:18:03Z</time>
      </trkpt>
      <trkpt lat="47.29205" lon="4.96719">
        <ele>404.1</ele>
        <time>2015-03-17T15:18:16Z</time>
      </trkpt>
      <trkpt lat="47.29196" lon="4.96715">
        <ele>404.3</ele>
        <time>2015-03-17T15:18:29Z</time>
      </trkpt>
      <trkpt lat="47.29187" lon="4.96721">
        <ele>404.1</ele>
        <time>2015-03-17T15:18:36Z</time>
      </trkpt>
      <trkpt lat="47.29178" lon="4.96727">
        <ele>403.7</ele>
        <time>2015-03-17T15:18:45Z</time>
      </trkpt>
      <trkpt lat="47.29169" lon="4.96733">
        <ele>403.2</ele>
        <time>2015-03-17T15:18:54Z</time>
      </trkpt>
      <trkpt lat="47.2916" lon="4.96736">
        <ele>403.4</ele>
        <time>2015-03-17T15:19:07Z</time>
      </trkpt>
      <trkpt lat="47.29151" lon="4.96731">
        <ele>404.2</ele>
        <time>2015-03-17T15:19:36Z</time>
      </trkpt>
      <trkpt lat="47.29142" lon="4.9673">
        <ele>404.8</ele>
        <time>2015-03-17T15:20:17Z</time>
      </trkpt>
      <trkpt lat="47.29133" lon="4.96727">
        <ele>405.5</ele>
        <time>2015-03-17T15:20:29Z</time>
      </trkpt>
      <trkpt lat="47.29124" lon="4.96726">
        <ele>406</ele>
        <time>2015-03-17T15:20:41Z</time>
      </trkpt>
      <trkpt lat="47.29115" lon="4.96718">
        <ele>407</ele>
        <time>2015-03-17T15:20:53Z</time>
      </trkpt>
      <trkpt lat="47.29107" lon="4.96712">
        <ele>407.7</ele>
        <time>2015-03-17T15:21:04Z</time>
      </trkpt>
      <trkpt lat="47.29097" lon="4.9671">
        <ele>408.3</ele>
        <time>2015-03-17T15:23:29Z</time>
      </trkpt>
      <trkpt lat="47.29087" lon="4.96707">
        <ele>408.9</ele>
        <time>2015-03-17T15:23:41Z</time>
      </trkpt>
      <trkpt lat="47.29078" lon="4.96703">
        <ele>409.7</ele>
        <time>2015-03-17T15:23:54Z</time>
      </trkpt>
      <trkpt lat="47.29068" lon="4.96702">
        <ele>410.4</ele>
        <time>2015-03-17T15:24:03Z</time>
      </trkpt>
      <trkpt lat="47.29059" lon="4.96699">
        <ele>411.2</ele>
        <time>2015-03-17T15:24:13Z</time>
      </trkpt>
      <trkpt lat="47.2905" lon="4.96696">
        <ele>411.9</ele>
        <time>2015-03-17T15:24:22Z</time>
      </trkpt>
      <trkpt lat="47.29041" lon="4.96692">
        <ele>412.7</ele>
        <time>2015-03-17T15:24:31Z</time>
      </trkpt>
      <trkpt lat="47.29032" lon="4.96688">
        <ele>413.4</ele>
        <time>2015-03-17T15:24:40Z</time>
      </trkpt>
      <trkpt lat="47.29023" lon="4.96686">
        <ele>414.1</ele>
        <time>2015-03-17T15:24:48Z</time>
      </trkpt>
      <trkpt lat="47.29013" lon="4.96685">
        <ele>414.7</ele>
        <time>2015-03-17T15:24:59Z</time>
      </trkpt>
      <trkpt lat="47.29004" lon="4.96681">
        <ele>415.4</ele>
        <time>2015-03-17T15:25:07Z</time>
      </trkpt>
      <trkpt lat="47.28995" lon="4.96677">
        <ele>416.1</ele>
        <time>2015-03-17T15:25:17Z</time>
      </trkpt>
      <trkpt lat="47.28986" lon="4.96672">
        <ele>416.9</ele>
        <time>2015-03-17T15:25:27Z</time>
      </trkpt>
      <trkpt lat="47.28977" lon="4.9667">
        <ele>417.6</ele>
        <time>2015-03-17T15:25:37Z</time>
      </trkpt>
      <trkpt lat="47.28967" lon="4.96666">
        <ele>418.4</ele>
        <time>2015-03-17T15:25:48Z</time>
      </trkpt>
      <trkpt lat="47.28959" lon="4.96662">
        <ele>419</ele>
        <time>2015-03-17T15:25:57Z</time>
      </trkpt>
      <trkpt lat="47.28949" lon="4.9666">
        <ele>419.7</ele>
        <time>2015-03-17T15:26:08Z</time>
      </trkpt>
      <trkpt lat="47.2894" lon="4.96655">
        <ele>420.4</ele>
        <time>2015-03-17T15:26:20Z</time>
      </trkpt>
      <trkpt lat="47.2893" lon="4.96652">
        <ele>421.1</ele>
        <time>2015-03-17T15:26:30Z</time>
      </trkpt>
      <trkpt lat="47.28921" lon="4.96648">
        <ele>421.7</ele>
        <time>2015-03-17T15:26:38Z</time>
      </trkpt>
      <trkpt lat="47.28911" lon="4.96644">
        <ele>422.3</ele>
        <time>2015-03-17T15:26:47Z</time>
      </trkpt>
      <trkpt lat="47.28902" lon="4.96638">
        <ele>422.8</ele>
        <time>2015-03-17T15:26:56Z</time>
      </trkpt>
      <trkpt lat="47.28893" lon="4.96635">
        <ele>423.2</ele>
        <time>2015-03-17T15:27:04Z</time>
      </trkpt>
      <trkpt lat="47.28884" lon="4.96632">
        <ele>423.6</ele>
        <time>2015-03-17T15:27:12Z</time>
      </trkpt>
      <trkpt lat="47.28875" lon="4.96628">
        <ele>424</ele>
        <time>2015-03-17T15:27:19Z</time>
      </trkpt>
      <trkpt lat="47.28866" lon="4.96623">
        <ele>424.4</ele>
        <time>2015-03-17T15:27:28Z</time>
      </trkpt>
      <trkpt lat="47.28857" lon="4.96622">
        <ele>424.8</ele>
        <time>2015-03-17T15:27:37Z</time>
      </trkpt>
      <trkpt lat="47.28847" lon="4.96619">
        <ele>425.2</ele>
        <time>2015-03-17T15:27:46Z</time>
      </trkpt>
      <trkpt lat="47.28838" lon="4.96617">
        <ele>425.6</ele>
        <time>2015-03-17T15:27:55Z</time>
      </trkpt>
      <trkpt lat="47.2883" lon="4.96611">
        <ele>425.9</ele>
        <time>2015-03-17T15:28:02Z</time>
      </trkpt>
      <trkpt lat="47.28821" lon="4.96607">
        <ele>426.3</ele>
        <time>2015-03-17T15:28:10Z</time>
      </trkpt>
      <trkpt lat="47.28811" lon="4.96604">
        <ele>426.9</ele>
        <time>2015-03-17T15:28:18Z</time>
      </trkpt>
      <trkpt lat="47.28801" lon="4.96599">
        <ele>427.4</ele>
        <time>2015-03-17T15:28:28Z</time>
      </trkpt>
      <trkpt lat="47.28792" lon="4.96594">
        <ele>428</ele>
        <time>2015-03-17T15:28:36Z</time>
      </trkpt>
      <trkpt lat="47.28783" lon="4.96591">
        <ele>428.6</ele>
        <time>2015-03-17T15:28:43Z</time>
      </trkpt>
      <trkpt lat="47.28775" lon="4.96586">
        <ele>429.2</ele>
        <time>2015-03-17T15:28:51Z</time>
      </trkpt>
      <trkpt lat="47.28766" lon="4.96589">
        <ele>429.8</ele>
        <time>2015-03-17T15:29:55Z</time>
      </trkpt>
      <trkpt lat="47.28761" lon="4.966">
        <ele>430.1</ele>
        <time>2015-03-17T15:30:19Z</time>
      </trkpt>
      <trkpt lat="47.28753" lon="4.96609">
        <ele>430.5</ele>
        <time>2015-03-17T15:30:26Z</time>
      </trkpt>
      <trkpt lat="47.28748" lon="4.96622">
        <ele>430.5</ele>
        <time>2015-03-17T15:30:33Z</time>
      </trkpt>
      <trkpt lat="47.28743" lon="4.96633">
        <ele>430.3</ele>
        <time>2015-03-17T15:30:40Z</time>
      </trkpt>
      <trkpt lat="47.28734" lon="4.96642">
        <ele>430.1</ele>
        <time>2015-03-17T15:30:49Z</time>
      </trkpt>
      <trkpt lat="47.28725" lon="4.96644">
        <ele>430</ele>
        <time>2015-03-17T15:30:58Z</time>
      </trkpt>
      <trkpt lat="47.28718" lon="4.96652">
        <ele>430</ele>
        <time>2015-03-17T15:31:07Z</time>
      </trkpt>
      <trkpt lat="47.28712" lon="4.96665">
        <ele>430</ele>
        <time>2015-03-17T15:31:14Z</time>
      </trkpt>
      <trkpt lat="47.28711" lon="4.96678">
        <ele>429.9</ele>
        <time>2015-03-17T15:31:21Z</time>
      </trkpt>
      <trkpt lat="47.28706" lon="4.96691">
        <ele>429.9</ele>
        <time>2015-03-17T15:31:29Z</time>
      </trkpt>
      <trkpt lat="47.28702" lon="4.96703">
        <ele>429.8</ele>
        <time>2015-03-17T15:31:36Z</time>
      </trkpt>
      <trkpt lat="47.28701" lon="4.96717">
        <ele>429.8</ele>
        <time>2015-03-17T15:31:44Z</time>
      </trkpt>
      <trkpt lat="47.28696" lon="4.9673">
        <ele>429.7</ele>
        <time>2015-03-17T15:31:52Z</time>
      </trkpt>
      <trkpt lat="47.28691" lon="4.96742">
        <ele>429.7</ele>
        <time>2015-03-17T15:32:00Z</time>
      </trkpt>
      <trkpt lat="47.28687" lon="4.96755">
        <ele>429.6</ele>
        <time>2015-03-17T15:32:09Z</time>
      </trkpt>
      <trkpt lat="47.28683" lon="4.96768">
        <ele>429.2</ele>
        <time>2015-03-17T15:32:17Z</time>
      </trkpt>
      <trkpt lat="47.28678" lon="4.96779">
        <ele>428.9</ele>
        <time>2015-03-17T15:32:27Z</time>
      </trkpt>
      <trkpt lat="47.28673" lon="4.96791">
        <ele>428.5</ele>
        <time>2015-03-17T15:32:35Z</time>
      </trkpt>
      <trkpt lat="47.2867" lon="4.96803">
        <ele>428.1</ele>
        <time>2015-03-17T15:32:43Z</time>
      </trkpt>
      <trkpt lat="47.28665" lon="4.96815">
        <ele>427.6</ele>
        <time>2015-03-17T15:32:53Z</time>
      </trkpt>
      <trkpt lat="47.28662" lon="4.96829">
        <ele>427</ele>
        <time>2015-03-17T15:33:04Z</time>
      </trkpt>
      <trkpt lat="47.28659" lon="4.96842">
        <ele>426.3</ele>
        <time>2015-03-17T15:33:12Z</time>
      </trkpt>
      <trkpt lat="47.28659" lon="4.96856">
        <ele>425.5</ele>
        <time>2015-03-17T15:33:19Z</time>
      </trkpt>
      <trkpt lat="47.28658" lon="4.9687">
        <ele>424.6</ele>
        <time>2015-03-17T15:33:26Z</time>
      </trkpt>
      <trkpt lat="47.28657" lon="4.96885">
        <ele>423.8</ele>
        <time>2015-03-17T15:33:33Z</time>
      </trkpt>
      <trkpt lat="47.28654" lon="4.96898">
        <ele>423.1</ele>
        <time>2015-03-17T15:33:41Z</time>
      </trkpt>
      <trkpt lat="47.28651" lon="4.96911">
        <ele>422.3</ele>
        <time>2015-03-17T15:33:50Z</time>
      </trkpt>
      <trkpt lat="47.2865" lon="4.96924">
        <ele>421.6</ele>
        <time>2015-03-17T15:33:58Z</time>
      </trkpt>
      <trkpt lat="47.28648" lon="4.96939">
        <ele>420.9</ele>
        <time>2015-03-17T15:34:07Z</time>
      </trkpt>
      <trkpt lat="47.28647" lon="4.96954">
        <ele>420.1</ele>
        <time>2015-03-17T15:34:16Z</time>
      </trkpt>
      <trkpt lat="47.28647" lon="4.96967">
        <ele>419.5</ele>
        <time>2015-03-17T15:34:23Z</time>
      </trkpt>
      <trkpt lat="47.28647" lon="4.9698">
        <ele>418.8</ele>
        <time>2015-03-17T15:34:31Z</time>
      </trkpt>
      <trkpt lat="47.28647" lon="4.96994">
        <ele>418.1</ele>
        <time>2015-03-17T15:34:39Z</time>
      </trkpt>
      <trkpt lat="47.28645" lon="4.97009">
        <ele>417.4</ele>
        <time>2015-03-17T15:34:49Z</time>
      </trkpt>
      <trkpt lat="47.28647" lon="4.97023">
        <ele>416.8</ele>
        <time>2015-03-17T15:34:57Z</time>
      </trkpt>
      <trkpt lat="47.28649" lon="4.97037">
        <ele>416.2</ele>
        <time>2015-03-17T15:35:07Z</time>
      </trkpt>
      <trkpt lat="47.2865" lon="4.97051">
        <ele>415.6</ele>
        <time>2015-03-17T15:35:15Z</time>
      </trkpt>
      <trkpt lat="47.28652" lon="4.97065">
        <ele>415</ele>
        <time>2015-03-17T15:35:24Z</time>
      </trkpt>
      <trkpt lat="47.28653" lon="4.9708">
        <ele>414.3</ele>
        <time>2015-03-17T15:35:34Z</time>
      </trkpt>
      <trkpt lat="47.2865" lon="4.97094">
        <ele>413.6</ele>
        <time>2015-03-17T15:35:42Z</time>
      </trkpt>
      <trkpt lat="47.28649" lon="4.97108">
        <ele>412.9</ele>
        <time>2015-03-17T15:35:50Z</time>
      </trkpt>
      <trkpt lat="47.28648" lon="4.97121">
        <ele>412.2</ele>
        <time>2015-03-17T15:36:00Z</time>
      </trkpt>
      <trkpt lat="47.28647" lon="4.97135">
        <ele>411.4</ele>
        <time>2015-03-17T15:36:11Z</time>
      </trkpt>
      <trkpt lat="47.28644" lon="4.97148">
        <ele>410.9</ele>
        <time>2015-03-17T15:36:21Z</time>
      </trkpt>
      <trkpt lat="47.28642" lon="4.97163">
        <ele>410.1</ele>
        <time>2015-03-17T15:36:34Z</time>
      </trkpt>
      <trkpt lat="47.2864" lon="4.97176">
        <ele>409.4</ele>
        <time>2015-03-17T15:36:42Z</time>
      </trkpt>
      <trkpt lat="47.28636" lon="4.9719">
        <ele>408.7</ele>
        <time>2015-03-17T15:36:51Z</time>
      </trkpt>
      <trkpt lat="47.28635" lon="4.97205">
        <ele>407.8</ele>
        <time>2015-03-17T15:36:58Z</time>
      </trkpt>
      <trkpt lat="47.28635" lon="4.97219">
        <ele>406.9</ele>
        <time>2015-03-17T15:37:06Z</time>
      </trkpt>
      <trkpt lat="47.28633" lon="4.97233">
        <ele>406.2</ele>
        <time>2015-03-17T15:37:15Z</time>
      </trkpt>
      <trkpt lat="47.28632" lon="4.97246">
        <ele>405.6</ele>
        <time>2015-03-17T15:37:24Z</time>
      </trkpt>
      <trkpt lat="47.28629" lon="4.9726">
        <ele>404.8</ele>
        <time>2015-03-17T15:37:33Z</time>
      </trkpt>
      <trkpt lat="47.28626" lon="4.97273">
        <ele>403.9</ele>
        <time>2015-03-17T15:37:42Z</time>
      </trkpt>
      <trkpt lat="47.28627" lon="4.97287">
        <ele>402.4</ele>
        <time>2015-03-17T15:37:52Z</time>
      </trkpt>
      <trkpt lat="47.28629" lon="4.973">
        <ele>401</ele>
        <time>2015-03-17T15:38:01Z</time>
      </trkpt>
      <trkpt lat="47.28631" lon="4.97313">
        <ele>399.4</ele>
        <time>2015-03-17T15:38:09Z</time>
      </trkpt>
      <trkpt lat="47.28633" lon="4.97327">
        <ele>397.6</ele>
        <time>2015-03-17T15:38:20Z</time>
      </trkpt>
      <trkpt lat="47.28636" lon="4.9734">
        <ele>396.1</ele>
        <time>2015-03-17T15:38:29Z</time>
      </trkpt>
      <trkpt lat="47.28638" lon="4.97353">
        <ele>394.8</ele>
        <time>2015-03-17T15:38:38Z</time>
      </trkpt>
      <trkpt lat="47.2864" lon="4.97366">
        <ele>393.6</ele>
        <time>2015-03-17T15:38:47Z</time>
      </trkpt>
      <trkpt lat="47.28643" lon="4.9738">
        <ele>392.2</ele>
        <time>2015-03-17T15:38:57Z</time>
      </trkpt>
      <trkpt lat="47.28645" lon="4.97393">
        <ele>390.8</ele>
        <time>2015-03-17T15:39:06Z</time>
      </trkpt>
      <trkpt lat="47.28645" lon="4.97407">
        <ele>390</ele>
        <time>2015-03-17T15:39:16Z</time>
      </trkpt>
      <trkpt lat="47.28645" lon="4.97421">
        <ele>389</ele>
        <time>2015-03-17T15:39:26Z</time>
      </trkpt>
      <trkpt lat="47.28641" lon="4.97435">
        <ele>388.8</ele>
        <time>2015-03-17T15:39:44Z</time>
      </trkpt>
      <trkpt lat="47.28637" lon="4.97448">
        <ele>388.7</ele>
        <time>2015-03-17T15:39:51Z</time>
      </trkpt>
      <trkpt lat="47.28632" lon="4.9746">
        <ele>388.8</ele>
        <time>2015-03-17T15:39:58Z</time>
      </trkpt>
      <trkpt lat="47.28628" lon="4.97474">
        <ele>388.4</ele>
        <time>2015-03-17T15:40:07Z</time>
      </trkpt>
      <trkpt lat="47.28623" lon="4.97485">
        <ele>388.5</ele>
        <time>2015-03-17T15:40:15Z</time>
      </trkpt>
      <trkpt lat="47.2862" lon="4.97497">
        <ele>387.9</ele>
        <time>2015-03-17T15:40:25Z</time>
      </trkpt>
      <trkpt lat="47.28616" lon="4.9751">
        <ele>387.2</ele>
        <time>2015-03-17T15:40:35Z</time>
      </trkpt>
      <trkpt lat="47.28612" lon="4.97522">
        <ele>386.7</ele>
        <time>2015-03-17T15:40:45Z</time>
      </trkpt>
      <trkpt lat="47.28606" lon="4.97533">
        <ele>386.5</ele>
        <time>2015-03-17T15:41:07Z</time>
      </trkpt>
      <trkpt lat="47.28601" lon="4.97546">
        <ele>385.9</ele>
        <time>2015-03-17T15:41:16Z</time>
      </trkpt>
      <trkpt lat="47.28596" lon="4.97558">
        <ele>385.6</ele>
        <time>2015-03-17T15:41:25Z</time>
      </trkpt>
      <trkpt lat="47.28591" lon="4.97571">
        <ele>385</ele>
        <time>2015-03-17T15:41:37Z</time>
      </trkpt>
      <trkpt lat="47.28585" lon="4.97581">
        <ele>385</ele>
        <time>2015-03-17T15:41:45Z</time>
      </trkpt>
      <trkpt lat="47.28579" lon="4.97593">
        <ele>383.9</ele>
        <time>2015-03-17T15:42:02Z</time>
      </trkpt>
      <trkpt lat="47.28575" lon="4.97607">
        <ele>382.1</ele>
        <time>2015-03-17T15:42:09Z</time>
      </trkpt>
      <trkpt lat="47.28569" lon="4.97618">
        <ele>381.1</ele>
        <time>2015-03-17T15:42:18Z</time>
      </trkpt>
      <trkpt lat="47.28563" lon="4.97629">
        <ele>380.1</ele>
        <time>2015-03-17T15:42:29Z</time>
      </trkpt>
      <trkpt lat="47.28555" lon="4.97636">
        <ele>379.9</ele>
        <time>2015-03-17T15:42:39Z</time>
      </trkpt>
      <trkpt lat="47.28548" lon="4.97645">
        <ele>379.3</ele>
        <time>2015-03-17T15:44:29Z</time>
      </trkpt>
      <trkpt lat="47.28545" lon="4.97658">
        <ele>377.8</ele>
        <time>2015-03-17T15:46:03Z</time>
      </trkpt>
      <trkpt lat="47.28542" lon="4.9767">
        <ele>376.5</ele>
        <time>2015-03-17T15:46:14Z</time>
      </trkpt>
      <trkpt lat="47.2854" lon="4.97684">
        <ele>374.4</ele>
        <time>2015-03-17T15:46:26Z</time>
      </trkpt>
      <trkpt lat="47.28536" lon="4.97696">
        <ele>373</ele>
        <time>2015-03-17T15:46:38Z</time>
      </trkpt>
      <trkpt lat="47.28531" lon="4.97708">
        <ele>371.8</ele>
        <time>2015-03-17T15:47:10Z</time>
      </trkpt>
      <trkpt lat="47.28527" lon="4.9772">
        <ele>370.3</ele>
        <time>2015-03-17T15:47:20Z</time>
      </trkpt>
      <trkpt lat="47.28522" lon="4.97732">
        <ele>369.1</ele>
        <time>2015-03-17T15:47:30Z</time>
      </trkpt>
      <trkpt lat="47.28518" lon="4.97744">
        <ele>368.1</ele>
        <time>2015-03-17T15:47:38Z</time>
      </trkpt>
      <trkpt lat="47.28512" lon="4.97755">
        <ele>367</ele>
        <time>2015-03-17T15:47:51Z</time>
      </trkpt>
      <trkpt lat="47.28507" lon="4.97769">
        <ele>365</ele>
        <time>2015-03-17T15:48:02Z</time>
      </trkpt>
      <trkpt lat="47.28502" lon="4.9778">
        <ele>363.5</ele>
        <time>2015-03-17T15:48:13Z</time>
      </trkpt>
      <trkpt lat="47.28498" lon="4.97792">
        <ele>361.6</ele>
        <time>2015-03-17T15:48:34Z</time>
      </trkpt>
      <trkpt lat="47.28492" lon="4.97804">
        <ele>359.5</ele>
        <time>2015-03-17T15:48:46Z</time>
      </trkpt>
      <trkpt lat="47.28488" lon="4.97816">
        <ele>357.4</ele>
        <time>2015-03-17T15:48:53Z</time>
      </trkpt>
      <trkpt lat="47.28482" lon="4.97826">
        <ele>355.8</ele>
        <time>2015-03-17T15:49:01Z</time>
      </trkpt>
      <trkpt lat="47.28476" lon="4.97837">
        <ele>353.9</ele>
        <time>2015-03-17T15:49:10Z</time>
      </trkpt>
      <trkpt lat="47.28472" lon="4.9785">
        <ele>351.7</ele>
        <time>2015-03-17T15:49:19Z</time>
      </trkpt>
      <trkpt lat="47.28467" lon="4.97861">
        <ele>349.7</ele>
        <time>2015-03-17T15:49:31Z</time>
      </trkpt>
      <trkpt lat="47.28464" lon="4.97874">
        <ele>347.2</ele>
        <time>2015-03-17T15:49:45Z</time>
      </trkpt>
      <trkpt lat="47.28461" lon="4.97887">
        <ele>344.8</ele>
        <time>2015-03-17T15:50:05Z</time>
      </trkpt>
      <trkpt lat="47.28457" lon="4.979">
        <ele>342.6</ele>
        <time>2015-03-17T15:50:15Z</time>
      </trkpt>
      <trkpt lat="47.28452" lon="4.97912">
        <ele>340.8</ele>
        <time>2015-03-17T15:50:25Z</time>
      </trkpt>
      <trkpt lat="47.28447" lon="4.97923">
        <ele>339.3</ele>
        <time>2015-03-17T15:50:36Z</time>
      </trkpt>
      <trkpt lat="47.28443" lon="4.97935">
        <ele>337.1</ele>
        <time>2015-03-17T15:50:48Z</time>
      </trkpt>
      <trkpt lat="47.28437" lon="4.97945">
        <ele>335.7</ele>
        <time>2015-03-17T15:51:04Z</time>
      </trkpt>
      <trkpt lat="47.28431" lon="4.97955">
        <ele>334.6</ele>
        <time>2015-03-17T15:51:27Z</time>
      </trkpt>
      <trkpt lat="47.28423" lon="4.97964">
        <ele>333.7</ele>
        <time>2015-03-17T15:51:58Z</time>
      </trkpt>
      <trkpt lat="47.28417" lon="4.97974">
        <ele>332.3</ele>
        <time>2015-03-17T15:52:17Z</time>
      </trkpt>
      <trkpt lat="47.28412" lon="4.97986">
        <ele>330</ele>
        <time>2015-03-17T15:52:33Z</time>
      </trkpt>
      <trkpt lat="47.28409" lon="4.97999">
        <ele>327.4</ele>
        <time>2015-03-17T15:52:47Z</time>
      </trkpt>
      <trkpt lat="47.28402" lon="4.9801">
        <ele>325.7</ele>
        <time>2015-03-17T15:53:04Z</time>
      </trkpt>
      <trkpt lat="47.28395" lon="4.9802">
        <ele>324.1</ele>
        <time>2015-03-17T15:53:12Z</time>
      </trkpt>
      <trkpt lat="47.28395" lon="4.98034">
        <ele>321.9</ele>
        <time>2015-03-17T15:53:28Z</time>
      </trkpt>
      <trkpt lat="47.28397" lon="4.98047">
        <ele>319.3</ele>
        <time>2015-03-17T15:53:45Z</time>
      </trkpt>
      <trkpt lat="47.28392" lon="4.98058">
        <ele>317.5</ele>
        <time>2015-03-17T15:53:56Z</time>
      </trkpt>
      <trkpt lat="47.2839" lon="4.98072">
        <ele>315.3</ele>
        <time>2015-03-17T15:54:13Z</time>
      </trkpt>
      <trkpt lat="47.28391" lon="4.98086">
        <ele>313</ele>
        <time>2015-03-17T15:54:23Z</time>
      </trkpt>
      <trkpt lat="47.28391" lon="4.98101">
        <ele>311.7</ele>
        <time>2015-03-17T15:54:33Z</time>
      </trkpt>
      <trkpt lat="47.28392" lon="4.98115">
        <ele>310.5</ele>
        <time>2015-03-17T15:54:42Z</time>
      </trkpt>
      <trkpt lat="47.28395" lon="4.98129">
        <ele>309.2</ele>
        <time>2015-03-17T15:54:52Z</time>
      </trkpt>
      <trkpt lat="47.28398" lon="4.98143">
        <ele>308.1</ele>
        <time>2015-03-17T15:55:00Z</time>
      </trkpt>
      <trkpt lat="47.28401" lon="4.98156">
        <ele>306.9</ele>
        <time>2015-03-17T15:55:08Z</time>
      </trkpt>
      <trkpt lat="47.28407" lon="4.98166">
        <ele>306.1</ele>
        <time>2015-03-17T15:55:17Z</time>
      </trkpt>
      <trkpt lat="47.28412" lon="4.98178">
        <ele>306.3</ele>
        <time>2015-03-17T15:55:26Z</time>
      </trkpt>
      <trkpt lat="47.28416" lon="4.9819">
        <ele>306.8</ele>
        <time>2015-03-17T15:55:34Z</time>
      </trkpt>
      <trkpt lat="47.28423" lon="4.982">
        <ele>308.1</ele>
        <time>2015-03-17T15:55:42Z</time>
      </trkpt>
      <trkpt lat="47.28429" lon="4.98211">
        <ele>309.7</ele>
        <time>2015-03-17T15:55:51Z</time>
      </trkpt>
      <trkpt lat="47.28436" lon="4.98221">
        <ele>311.4</ele>
        <time>2015-03-17T15:55:59Z</time>
      </trkpt>
      <trkpt lat="47.28441" lon="4.98234">
        <ele>313</ele>
        <time>2015-03-17T15:56:07Z</time>
      </trkpt>
      <trkpt lat="47.28439" lon="4.98247">
        <ele>313.4</ele>
        <time>2015-03-17T15:56:19Z</time>
      </trkpt>
      <trkpt lat="47.28437" lon="4.98261">
        <ele>313.9</ele>
        <time>2015-03-17T15:56:27Z</time>
      </trkpt>
      <trkpt lat="47.2843" lon="4.98272">
        <ele>313.4</ele>
        <time>2015-03-17T15:56:34Z</time>
      </trkpt>
      <trkpt lat="47.28428" lon="4.98286">
        <ele>314.1</ele>
        <time>2015-03-17T15:56:43Z</time>
      </trkpt>
      <trkpt lat="47.28421" lon="4.98297">
        <ele>313.8</ele>
        <time>2015-03-17T15:56:52Z</time>
      </trkpt>
      <trkpt lat="47.28417" lon="4.98309">
        <ele>313.9</ele>
        <time>2015-03-17T15:57:00Z</time>
      </trkpt>
      <trkpt lat="47.28409" lon="4.98318">
        <ele>313.6</ele>
        <time>2015-03-17T15:57:08Z</time>
      </trkpt>
      <trkpt lat="47.28404" lon="4.9833">
        <ele>313.8</ele>
        <time>2015-03-17T15:57:16Z</time>
      </trkpt>
      <trkpt lat="47.28399" lon="4.98341">
        <ele>313.9</ele>
        <time>2015-03-17T15:57:23Z</time>
      </trkpt>
      <trkpt lat="47.28391" lon="4.98349">
        <ele>313.6</ele>
        <time>2015-03-17T15:57:34Z</time>
      </trkpt>
      <trkpt lat="47.28382" lon="4.98354">
        <ele>312.8</ele>
        <time>2015-03-17T15:57:42Z</time>
      </trkpt>
      <trkpt lat="47.28372" lon="4.98358">
        <ele>311.8</ele>
        <time>2015-03-17T15:57:50Z</time>
      </trkpt>
      <trkpt lat="47.28363" lon="4.98361">
        <ele>310.7</ele>
        <time>2015-03-17T15:57:58Z</time>
      </trkpt>
      <trkpt lat="47.28355" lon="4.98369">
        <ele>310.4</ele>
        <time>2015-03-17T15:58:06Z</time>
      </trkpt>
      <trkpt lat="47.28346" lon="4.98376">
        <ele>309.8</ele>
        <time>2015-03-17T15:58:14Z</time>
      </trkpt>
      <trkpt lat="47.28338" lon="4.98384">
        <ele>309.7</ele>
        <time>2015-03-17T15:58:23Z</time>
      </trkpt>
      <trkpt lat="47.28331" lon="4.98393">
        <ele>309.9</ele>
        <time>2015-03-17T15:58:34Z</time>
      </trkpt>
      <trkpt lat="47.28322" lon="4.98397">
        <ele>309.1</ele>
        <time>2015-03-17T15:58:40Z</time>
      </trkpt>
      <trkpt lat="47.28314" lon="4.98405">
        <ele>308.8</ele>
        <time>2015-03-17T15:58:48Z</time>
      </trkpt>
      <trkpt lat="47.28306" lon="4.98412">
        <ele>308.3</ele>
        <time>2015-03-17T15:58:56Z</time>
      </trkpt>
      <trkpt lat="47.28297" lon="4.98418">
        <ele>307.4</ele>
        <time>2015-03-17T15:59:04Z</time>
      </trkpt>
      <trkpt lat="47.28291" lon="4.9843">
        <ele>306.8</ele>
        <time>2015-03-17T15:59:12Z</time>
      </trkpt>
      <trkpt lat="47.28287" lon="4.98443">
        <ele>306.6</ele>
        <time>2015-03-17T15:59:19Z</time>
      </trkpt>
      <trkpt lat="47.28285" lon="4.98456">
        <ele>306.6</ele>
        <time>2015-03-17T15:59:27Z</time>
      </trkpt>
      <trkpt lat="47.28283" lon="4.98469">
        <ele>306.8</ele>
        <time>2015-03-17T15:59:36Z</time>
      </trkpt>
      <trkpt lat="47.28281" lon="4.98483">
        <ele>306.9</ele>
        <time>2015-03-17T15:59:45Z</time>
      </trkpt>
      <trkpt lat="47.28276" lon="4.98495">
        <ele>306.6</ele>
        <time>2015-03-17T15:59:53Z</time>
      </trkpt>
      <trkpt lat="47.28272" lon="4.98508">
        <ele>306.3</ele>
        <time>2015-03-17T16:00:02Z</time>
      </trkpt>
      <trkpt lat="47.28264" lon="4.98517">
        <ele>305.3</ele>
        <time>2015-03-17T16:00:10Z</time>
      </trkpt>
      <trkpt lat="47.28259" lon="4.98529">
        <ele>304.6</ele>
        <time>2015-03-17T16:00:19Z</time>
      </trkpt>
      <trkpt lat="47.28251" lon="4.98539">
        <ele>303.7</ele>
        <time>2015-03-17T16:00:27Z</time>
      </trkpt>
      <trkpt lat="47.28244" lon="4.98549">
        <ele>303</ele>
        <time>2015-03-17T16:00:36Z</time>
      </trkpt>
      <trkpt lat="47.28236" lon="4.98557">
        <ele>302.1</ele>
        <time>2015-03-17T16:00:44Z</time>
      </trkpt>
      <trkpt lat="47.2823" lon="4.98567">
        <ele>301.6</ele>
        <time>2015-03-17T16:00:52Z</time>
      </trkpt>
      <trkpt lat="47.28223" lon="4.98577">
        <ele>301</ele>
        <time>2015-03-17T16:01:00Z</time>
      </trkpt>
      <trkpt lat="47.28216" lon="4.98586">
        <ele>300.3</ele>
        <time>2015-03-17T16:01:07Z</time>
      </trkpt>
      <trkpt lat="47.28208" lon="4.98595">
        <ele>299.4</ele>
        <time>2015-03-17T16:01:15Z</time>
      </trkpt>
      <trkpt lat="47.28203" lon="4.98606">
        <ele>298.7</ele>
        <time>2015-03-17T16:01:23Z</time>
      </trkpt>
      <trkpt lat="47.28195" lon="4.98616">
        <ele>297.8</ele>
        <time>2015-03-17T16:01:31Z</time>
      </trkpt>
      <trkpt lat="47.28191" lon="4.98628">
        <ele>297.3</ele>
        <time>2015-03-17T16:01:40Z</time>
      </trkpt>
      <trkpt lat="47.28194" lon="4.98641">
        <ele>297.5</ele>
        <time>2015-03-17T16:01:48Z</time>
      </trkpt>
      <trkpt lat="47.28203" lon="4.98647">
        <ele>298.5</ele>
        <time>2015-03-17T16:01:56Z</time>
      </trkpt>
      <trkpt lat="47.28212" lon="4.98651">
        <ele>299.6</ele>
        <time>2015-03-17T16:02:05Z</time>
      </trkpt>
      <trkpt lat="47.28222" lon="4.98655">
        <ele>300.7</ele>
        <time>2015-03-17T16:02:14Z</time>
      </trkpt>
      <trkpt lat="47.28231" lon="4.98662">
        <ele>301.7</ele>
        <time>2015-03-17T16:02:22Z</time>
      </trkpt>
      <trkpt lat="47.28241" lon="4.98666">
        <ele>302.9</ele>
        <time>2015-03-17T16:02:30Z</time>
      </trkpt>
      <trkpt lat="47.2825" lon="4.98666">
        <ele>304.1</ele>
        <time>2015-03-17T16:02:38Z</time>
      </trkpt>
      <trkpt lat="47.2826" lon="4.98662">
        <ele>305.6</ele>
        <time>2015-03-17T16:02:47Z</time>
      </trkpt>
      <trkpt lat="47.28269" lon="4.9866">
        <ele>307</ele>
        <time>2015-03-17T16:02:58Z</time>
      </trkpt>
      <trkpt lat="47.28278" lon="4.98658">
        <ele>308.4</ele>
        <time>2015-03-17T16:03:06Z</time>
      </trkpt>
      <trkpt lat="47.28287" lon="4.98657">
        <ele>309.9</ele>
        <time>2015-03-17T16:03:14Z</time>
      </trkpt>
      <trkpt lat="47.28297" lon="4.98654">
        <ele>311.3</ele>
        <time>2015-03-17T16:03:22Z</time>
      </trkpt>
      <trkpt lat="47.28306" lon="4.98652">
        <ele>312.8</ele>
        <time>2015-03-17T16:03:32Z</time>
      </trkpt>
      <trkpt lat="47.28316" lon="4.98651">
        <ele>314.4</ele>
        <time>2015-03-17T16:03:43Z</time>
      </trkpt>
      <trkpt lat="47.28325" lon="4.98651">
        <ele>316</ele>
        <time>2015-03-17T16:03:53Z</time>
      </trkpt>
      <trkpt lat="47.28335" lon="4.98651">
        <ele>317.4</ele>
        <time>2015-03-17T16:04:02Z</time>
      </trkpt>
      <trkpt lat="47.28344" lon="4.9865">
        <ele>318.9</ele>
        <time>2015-03-17T16:04:12Z</time>
      </trkpt>
      <trkpt lat="47.28351" lon="4.98641">
        <ele>320.1</ele>
        <time>2015-03-17T16:04:22Z</time>
      </trkpt>
      <trkpt lat="47.28357" lon="4.98631">
        <ele>321</ele>
        <time>2015-03-17T16:04:54Z</time>
      </trkpt>
      <trkpt lat="47.28353" lon="4.98629">
        <ele>320.5</ele>
        <time>2015-03-17T16:05:12Z</time>
      </trkpt>
    </trkseg>
  </trk>
</gpx>